<?xml version="1.0" encoding="UTF-8" standalone="no" ?>
<gpx xmlns="http://www.topografix.com/GPX/1/1" xmlns:xsi="http://www.w3.org/2001/XMLSchema-instance" xsi:schemaLocation="http://www.topografix.com/GPX/1/1 http://www.topografix.com/GPX/1/1/gpx.xsd" version="1.1" creator="VisuGPX - https://www.visugpx.com">
  <metadata>
    <name>Montferrat Notre Dame de Beauvoir</name>
    <desc><![CDATA[Montferrat - Notre Dame de Beauvoir - Vallon de Sorgues]]></desc>
  </metadata>
  <trk>
    <name><![CDATA[Montferrat Notre Dame de Beauvoir]]></name>
    <trkseg>
      <trkpt lat="43.61076" lon="6.48275">
        <ele>458</ele>
        <time>2013-10-02T12:12:20Z</time>
      </trkpt>
      <trkpt lat="43.61073" lon="6.48264">
        <ele>460</ele>
        <time>2013-10-02T12:17:41Z</time>
      </trkpt>
      <trkpt lat="43.61073" lon="6.48263">
        <ele>460</ele>
        <time>2013-10-02T12:17:42Z</time>
      </trkpt>
      <trkpt lat="43.61068" lon="6.48242">
        <ele>460</ele>
        <time>2013-10-02T12:18:02Z</time>
      </trkpt>
      <trkpt lat="43.61071" lon="6.48232">
        <ele>460</ele>
        <time>2013-10-02T12:18:12Z</time>
      </trkpt>
      <trkpt lat="43.61077" lon="6.48224">
        <ele>461</ele>
        <time>2013-10-02T12:18:19Z</time>
      </trkpt>
      <trkpt lat="43.61083" lon="6.48216">
        <ele>461</ele>
        <time>2013-10-02T12:18:26Z</time>
      </trkpt>
      <trkpt lat="43.6109" lon="6.48209">
        <ele>461</ele>
        <time>2013-10-02T12:18:32Z</time>
      </trkpt>
      <trkpt lat="43.61098" lon="6.48205">
        <ele>462</ele>
        <time>2013-10-02T12:18:39Z</time>
      </trkpt>
      <trkpt lat="43.61106" lon="6.48202">
        <ele>462</ele>
        <time>2013-10-02T12:18:45Z</time>
      </trkpt>
      <trkpt lat="43.61107" lon="6.48201">
        <ele>463</ele>
        <time>2013-10-02T12:18:46Z</time>
      </trkpt>
      <trkpt lat="43.61121" lon="6.48196">
        <ele>464</ele>
        <time>2013-10-02T12:18:55Z</time>
      </trkpt>
      <trkpt lat="43.61129" lon="6.48195">
        <ele>463</ele>
        <time>2013-10-02T12:19:03Z</time>
      </trkpt>
      <trkpt lat="43.61137" lon="6.48195">
        <ele>465</ele>
        <time>2013-10-02T12:19:10Z</time>
      </trkpt>
      <trkpt lat="43.61146" lon="6.48197">
        <ele>465</ele>
        <time>2013-10-02T12:19:18Z</time>
      </trkpt>
      <trkpt lat="43.61152" lon="6.48205">
        <ele>466</ele>
        <time>2013-10-02T12:19:27Z</time>
      </trkpt>
      <trkpt lat="43.61154" lon="6.48217">
        <ele>466</ele>
        <time>2013-10-02T12:19:38Z</time>
      </trkpt>
      <trkpt lat="43.61156" lon="6.48228">
        <ele>466</ele>
        <time>2013-10-02T12:19:44Z</time>
      </trkpt>
      <trkpt lat="43.61156" lon="6.48239">
        <ele>466</ele>
        <time>2013-10-02T12:19:50Z</time>
      </trkpt>
      <trkpt lat="43.61157" lon="6.48241">
        <ele>466</ele>
        <time>2013-10-02T12:19:51Z</time>
      </trkpt>
      <trkpt lat="43.61157" lon="6.48263">
        <ele>466</ele>
        <time>2013-10-02T12:20:04Z</time>
      </trkpt>
      <trkpt lat="43.61154" lon="6.48274">
        <ele>466</ele>
        <time>2013-10-02T12:20:13Z</time>
      </trkpt>
      <trkpt lat="43.61158" lon="6.48284">
        <ele>468</ele>
        <time>2013-10-02T12:20:21Z</time>
      </trkpt>
      <trkpt lat="43.61163" lon="6.48291">
        <ele>469</ele>
        <time>2013-10-02T12:20:27Z</time>
      </trkpt>
      <trkpt lat="43.61171" lon="6.48296">
        <ele>468</ele>
        <time>2013-10-02T12:20:33Z</time>
      </trkpt>
      <trkpt lat="43.61178" lon="6.48299">
        <ele>470</ele>
        <time>2013-10-02T12:20:40Z</time>
      </trkpt>
      <trkpt lat="43.61187" lon="6.48303">
        <ele>470</ele>
        <time>2013-10-02T12:20:48Z</time>
      </trkpt>
      <trkpt lat="43.61195" lon="6.48308">
        <ele>470</ele>
        <time>2013-10-02T12:20:56Z</time>
      </trkpt>
      <trkpt lat="43.61196" lon="6.48308">
        <ele>471</ele>
        <time>2013-10-02T12:20:57Z</time>
      </trkpt>
      <trkpt lat="43.61211" lon="6.48307">
        <ele>473</ele>
        <time>2013-10-02T12:21:15Z</time>
      </trkpt>
      <trkpt lat="43.61209" lon="6.48296">
        <ele>474</ele>
        <time>2013-10-02T12:21:23Z</time>
      </trkpt>
      <trkpt lat="43.61203" lon="6.48287">
        <ele>475</ele>
        <time>2013-10-02T12:21:30Z</time>
      </trkpt>
      <trkpt lat="43.61199" lon="6.48277">
        <ele>475</ele>
        <time>2013-10-02T12:21:37Z</time>
      </trkpt>
      <trkpt lat="43.61195" lon="6.48268">
        <ele>476</ele>
        <time>2013-10-02T12:21:44Z</time>
      </trkpt>
      <trkpt lat="43.61191" lon="6.48257">
        <ele>476</ele>
        <time>2013-10-02T12:21:52Z</time>
      </trkpt>
      <trkpt lat="43.61188" lon="6.48245">
        <ele>477</ele>
        <time>2013-10-02T12:21:59Z</time>
      </trkpt>
      <trkpt lat="43.61188" lon="6.48244">
        <ele>477</ele>
        <time>2013-10-02T12:22:00Z</time>
      </trkpt>
      <trkpt lat="43.61188" lon="6.48222">
        <ele>477</ele>
        <time>2013-10-02T12:22:13Z</time>
      </trkpt>
      <trkpt lat="43.61192" lon="6.48212">
        <ele>476</ele>
        <time>2013-10-02T12:22:20Z</time>
      </trkpt>
      <trkpt lat="43.61198" lon="6.48205">
        <ele>477</ele>
        <time>2013-10-02T12:22:26Z</time>
      </trkpt>
      <trkpt lat="43.61205" lon="6.48201">
        <ele>477</ele>
        <time>2013-10-02T12:22:32Z</time>
      </trkpt>
      <trkpt lat="43.61213" lon="6.48199">
        <ele>477</ele>
        <time>2013-10-02T12:22:39Z</time>
      </trkpt>
      <trkpt lat="43.61222" lon="6.48202">
        <ele>478</ele>
        <time>2013-10-02T12:22:46Z</time>
      </trkpt>
      <trkpt lat="43.61229" lon="6.48208">
        <ele>480</ele>
        <time>2013-10-02T12:22:54Z</time>
      </trkpt>
      <trkpt lat="43.61236" lon="6.48215">
        <ele>481</ele>
        <time>2013-10-02T12:23:02Z</time>
      </trkpt>
      <trkpt lat="43.61237" lon="6.48216">
        <ele>481</ele>
        <time>2013-10-02T12:23:03Z</time>
      </trkpt>
      <trkpt lat="43.61249" lon="6.48231">
        <ele>484</ele>
        <time>2013-10-02T12:23:20Z</time>
      </trkpt>
      <trkpt lat="43.61255" lon="6.4824">
        <ele>486</ele>
        <time>2013-10-02T12:23:30Z</time>
      </trkpt>
      <trkpt lat="43.61258" lon="6.48252">
        <ele>487</ele>
        <time>2013-10-02T12:23:39Z</time>
      </trkpt>
      <trkpt lat="43.6126" lon="6.48263">
        <ele>489</ele>
        <time>2013-10-02T12:23:49Z</time>
      </trkpt>
      <trkpt lat="43.61263" lon="6.48274">
        <ele>490</ele>
        <time>2013-10-02T12:23:57Z</time>
      </trkpt>
      <trkpt lat="43.61268" lon="6.48284">
        <ele>491</ele>
        <time>2013-10-02T12:24:05Z</time>
      </trkpt>
      <trkpt lat="43.61269" lon="6.48285">
        <ele>491</ele>
        <time>2013-10-02T12:24:06Z</time>
      </trkpt>
      <trkpt lat="43.61282" lon="6.48298">
        <ele>494</ele>
        <time>2013-10-02T12:24:19Z</time>
      </trkpt>
      <trkpt lat="43.61289" lon="6.48304">
        <ele>493</ele>
        <time>2013-10-02T12:24:26Z</time>
      </trkpt>
      <trkpt lat="43.61297" lon="6.4831">
        <ele>495</ele>
        <time>2013-10-02T12:24:34Z</time>
      </trkpt>
      <trkpt lat="43.61305" lon="6.48315">
        <ele>496</ele>
        <time>2013-10-02T12:24:43Z</time>
      </trkpt>
      <trkpt lat="43.61312" lon="6.48321">
        <ele>498</ele>
        <time>2013-10-02T12:24:51Z</time>
      </trkpt>
      <trkpt lat="43.6132" lon="6.48325">
        <ele>498</ele>
        <time>2013-10-02T12:24:59Z</time>
      </trkpt>
      <trkpt lat="43.61329" lon="6.48324">
        <ele>500</ele>
        <time>2013-10-02T12:26:09Z</time>
      </trkpt>
      <trkpt lat="43.6133" lon="6.48324">
        <ele>500</ele>
        <time>2013-10-02T12:26:10Z</time>
      </trkpt>
      <trkpt lat="43.61346" lon="6.4833">
        <ele>508</ele>
        <time>2013-10-02T12:26:47Z</time>
      </trkpt>
      <trkpt lat="43.61354" lon="6.48334">
        <ele>510</ele>
        <time>2013-10-02T12:27:01Z</time>
      </trkpt>
      <trkpt lat="43.61362" lon="6.48334">
        <ele>512</ele>
        <time>2013-10-02T12:27:14Z</time>
      </trkpt>
      <trkpt lat="43.61363" lon="6.48334">
        <ele>512</ele>
        <time>2013-10-02T12:27:15Z</time>
      </trkpt>
      <trkpt lat="43.61379" lon="6.48331">
        <ele>516</ele>
        <time>2013-10-02T12:27:37Z</time>
      </trkpt>
      <trkpt lat="43.61388" lon="6.48329">
        <ele>520</ele>
        <time>2013-10-02T12:27:51Z</time>
      </trkpt>
      <trkpt lat="43.61396" lon="6.48327">
        <ele>521</ele>
        <time>2013-10-02T12:28:03Z</time>
      </trkpt>
      <trkpt lat="43.61405" lon="6.48325">
        <ele>524</ele>
        <time>2013-10-02T12:28:15Z</time>
      </trkpt>
      <trkpt lat="43.61405" lon="6.48324">
        <ele>525</ele>
        <time>2013-10-02T12:28:16Z</time>
      </trkpt>
      <trkpt lat="43.61421" lon="6.48321">
        <ele>527</ele>
        <time>2013-10-02T12:28:40Z</time>
      </trkpt>
      <trkpt lat="43.6143" lon="6.48317">
        <ele>525</ele>
        <time>2013-10-02T12:28:49Z</time>
      </trkpt>
      <trkpt lat="43.61437" lon="6.48314">
        <ele>526</ele>
        <time>2013-10-02T12:28:56Z</time>
      </trkpt>
      <trkpt lat="43.61446" lon="6.48312">
        <ele>526</ele>
        <time>2013-10-02T12:29:02Z</time>
      </trkpt>
      <trkpt lat="43.61454" lon="6.48314">
        <ele>526</ele>
        <time>2013-10-02T12:29:10Z</time>
      </trkpt>
      <trkpt lat="43.61463" lon="6.48316">
        <ele>527</ele>
        <time>2013-10-02T12:29:17Z</time>
      </trkpt>
      <trkpt lat="43.61464" lon="6.48316">
        <ele>527</ele>
        <time>2013-10-02T12:29:18Z</time>
      </trkpt>
      <trkpt lat="43.6148" lon="6.48316">
        <ele>529</ele>
        <time>2013-10-02T12:29:36Z</time>
      </trkpt>
      <trkpt lat="43.61488" lon="6.48316">
        <ele>529</ele>
        <time>2013-10-02T12:29:44Z</time>
      </trkpt>
      <trkpt lat="43.61497" lon="6.48315">
        <ele>530</ele>
        <time>2013-10-02T12:29:54Z</time>
      </trkpt>
      <trkpt lat="43.61506" lon="6.48314">
        <ele>533</ele>
        <time>2013-10-02T12:30:05Z</time>
      </trkpt>
      <trkpt lat="43.61514" lon="6.48314">
        <ele>534</ele>
        <time>2013-10-02T12:30:15Z</time>
      </trkpt>
      <trkpt lat="43.61523" lon="6.48314">
        <ele>535</ele>
        <time>2013-10-02T12:30:26Z</time>
      </trkpt>
      <trkpt lat="43.61523" lon="6.48314">
        <ele>535</ele>
        <time>2013-10-02T12:30:27Z</time>
      </trkpt>
      <trkpt lat="43.6154" lon="6.48316">
        <ele>539</ele>
        <time>2013-10-02T12:30:50Z</time>
      </trkpt>
      <trkpt lat="43.61548" lon="6.48317">
        <ele>542</ele>
        <time>2013-10-02T12:31:11Z</time>
      </trkpt>
      <trkpt lat="43.61557" lon="6.48317">
        <ele>545</ele>
        <time>2013-10-02T12:31:22Z</time>
      </trkpt>
      <trkpt lat="43.61566" lon="6.48316">
        <ele>547</ele>
        <time>2013-10-02T12:31:35Z</time>
      </trkpt>
      <trkpt lat="43.61566" lon="6.48316">
        <ele>547</ele>
        <time>2013-10-02T12:31:36Z</time>
      </trkpt>
      <trkpt lat="43.61573" lon="6.48338">
        <ele>551</ele>
        <time>2013-10-02T12:32:10Z</time>
      </trkpt>
      <trkpt lat="43.61582" lon="6.4834">
        <ele>554</ele>
        <time>2013-10-02T12:32:22Z</time>
      </trkpt>
      <trkpt lat="43.61589" lon="6.48336">
        <ele>557</ele>
        <time>2013-10-02T12:32:42Z</time>
      </trkpt>
      <trkpt lat="43.6159" lon="6.48336">
        <ele>557</ele>
        <time>2013-10-02T12:32:43Z</time>
      </trkpt>
      <trkpt lat="43.61605" lon="6.48342">
        <ele>566</ele>
        <time>2013-10-02T12:33:24Z</time>
      </trkpt>
      <trkpt lat="43.61613" lon="6.48342">
        <ele>568</ele>
        <time>2013-10-02T12:33:38Z</time>
      </trkpt>
      <trkpt lat="43.61621" lon="6.48339">
        <ele>570</ele>
        <time>2013-10-02T12:33:53Z</time>
      </trkpt>
      <trkpt lat="43.61622" lon="6.48339">
        <ele>570</ele>
        <time>2013-10-02T12:33:54Z</time>
      </trkpt>
      <trkpt lat="43.61638" lon="6.48344">
        <ele>575</ele>
        <time>2013-10-02T12:34:25Z</time>
      </trkpt>
      <trkpt lat="43.61646" lon="6.48348">
        <ele>577</ele>
        <time>2013-10-02T12:34:38Z</time>
      </trkpt>
      <trkpt lat="43.61652" lon="6.48354">
        <ele>581</ele>
        <time>2013-10-02T12:34:54Z</time>
      </trkpt>
      <trkpt lat="43.61654" lon="6.48355">
        <ele>581</ele>
        <time>2013-10-02T12:34:55Z</time>
      </trkpt>
      <trkpt lat="43.61669" lon="6.4836">
        <ele>585</ele>
        <time>2013-10-02T12:35:18Z</time>
      </trkpt>
      <trkpt lat="43.61678" lon="6.4836">
        <ele>587</ele>
        <time>2013-10-02T12:35:36Z</time>
      </trkpt>
      <trkpt lat="43.61681" lon="6.48371">
        <ele>587</ele>
        <time>2013-10-02T12:36:18Z</time>
      </trkpt>
      <trkpt lat="43.61682" lon="6.48372">
        <ele>587</ele>
        <time>2013-10-02T12:36:19Z</time>
      </trkpt>
      <trkpt lat="43.61673" lon="6.48365">
        <ele>586</ele>
        <time>2013-10-02T12:37:23Z</time>
      </trkpt>
      <trkpt lat="43.61682" lon="6.4837">
        <ele>586</ele>
        <time>2013-10-02T12:38:26Z</time>
      </trkpt>
      <trkpt lat="43.61699" lon="6.48373">
        <ele>589</ele>
        <time>2013-10-02T12:38:58Z</time>
      </trkpt>
      <trkpt lat="43.61708" lon="6.48375">
        <ele>592</ele>
        <time>2013-10-02T12:39:13Z</time>
      </trkpt>
      <trkpt lat="43.61716" lon="6.48377">
        <ele>594</ele>
        <time>2013-10-02T12:39:28Z</time>
      </trkpt>
      <trkpt lat="43.61717" lon="6.48377">
        <ele>594</ele>
        <time>2013-10-02T12:39:29Z</time>
      </trkpt>
      <trkpt lat="43.61734" lon="6.48382">
        <ele>599</ele>
        <time>2013-10-02T12:39:57Z</time>
      </trkpt>
      <trkpt lat="43.61742" lon="6.48385">
        <ele>602</ele>
        <time>2013-10-02T12:40:16Z</time>
      </trkpt>
      <trkpt lat="43.61748" lon="6.48392">
        <ele>603</ele>
        <time>2013-10-02T12:40:26Z</time>
      </trkpt>
      <trkpt lat="43.61755" lon="6.48399">
        <ele>604</ele>
        <time>2013-10-02T12:40:37Z</time>
      </trkpt>
      <trkpt lat="43.61756" lon="6.48399">
        <ele>604</ele>
        <time>2013-10-02T12:40:38Z</time>
      </trkpt>
      <trkpt lat="43.61772" lon="6.48392">
        <ele>608</ele>
        <time>2013-10-02T12:41:06Z</time>
      </trkpt>
      <trkpt lat="43.61777" lon="6.48382">
        <ele>611</ele>
        <time>2013-10-02T12:41:19Z</time>
      </trkpt>
      <trkpt lat="43.61785" lon="6.48383">
        <ele>612</ele>
        <time>2013-10-02T12:41:33Z</time>
      </trkpt>
      <trkpt lat="43.61792" lon="6.48391">
        <ele>619</ele>
        <time>2013-10-02T12:42:05Z</time>
      </trkpt>
      <trkpt lat="43.61793" lon="6.48391">
        <ele>619</ele>
        <time>2013-10-02T12:42:06Z</time>
      </trkpt>
      <trkpt lat="43.61798" lon="6.48414">
        <ele>624</ele>
        <time>2013-10-02T12:42:37Z</time>
      </trkpt>
      <trkpt lat="43.61803" lon="6.48423">
        <ele>627</ele>
        <time>2013-10-02T12:42:52Z</time>
      </trkpt>
      <trkpt lat="43.61809" lon="6.48432">
        <ele>629</ele>
        <time>2013-10-02T12:43:05Z</time>
      </trkpt>
      <trkpt lat="43.61812" lon="6.48443">
        <ele>631</ele>
        <time>2013-10-02T12:43:25Z</time>
      </trkpt>
      <trkpt lat="43.61812" lon="6.48444">
        <ele>631</ele>
        <time>2013-10-02T12:43:26Z</time>
      </trkpt>
      <trkpt lat="43.61821" lon="6.48464">
        <ele>635</ele>
        <time>2013-10-02T12:43:51Z</time>
      </trkpt>
      <trkpt lat="43.61821" lon="6.48452">
        <ele>638</ele>
        <time>2013-10-02T12:44:16Z</time>
      </trkpt>
      <trkpt lat="43.61823" lon="6.4844">
        <ele>640</ele>
        <time>2013-10-02T12:44:28Z</time>
      </trkpt>
      <trkpt lat="43.61823" lon="6.48439">
        <ele>640</ele>
        <time>2013-10-02T12:44:29Z</time>
      </trkpt>
      <trkpt lat="43.61838" lon="6.48435">
        <ele>646</ele>
        <time>2013-10-02T12:45:09Z</time>
      </trkpt>
      <trkpt lat="43.61841" lon="6.48446">
        <ele>648</ele>
        <time>2013-10-02T12:45:25Z</time>
      </trkpt>
      <trkpt lat="43.61848" lon="6.48454">
        <ele>652</ele>
        <time>2013-10-02T12:45:53Z</time>
      </trkpt>
      <trkpt lat="43.61848" lon="6.48454">
        <ele>652</ele>
        <time>2013-10-02T12:45:54Z</time>
      </trkpt>
      <trkpt lat="43.61859" lon="6.48454">
        <ele>658</ele>
        <time>2013-10-02T12:46:37Z</time>
      </trkpt>
      <trkpt lat="43.61864" lon="6.48444">
        <ele>661</ele>
        <time>2013-10-02T12:46:50Z</time>
      </trkpt>
      <trkpt lat="43.61866" lon="6.48456">
        <ele>663</ele>
        <time>2013-10-02T12:47:20Z</time>
      </trkpt>
      <trkpt lat="43.61867" lon="6.48457">
        <ele>663</ele>
        <time>2013-10-02T12:47:21Z</time>
      </trkpt>
      <trkpt lat="43.6188" lon="6.48467">
        <ele>665</ele>
        <time>2013-10-02T12:48:52Z</time>
      </trkpt>
      <trkpt lat="43.6188" lon="6.48467">
        <ele>665</ele>
        <time>2013-10-02T12:48:53Z</time>
      </trkpt>
      <trkpt lat="43.6189" lon="6.48463">
        <ele>668</ele>
        <time>2013-10-02T12:59:52Z</time>
      </trkpt>
      <trkpt lat="43.61891" lon="6.48463">
        <ele>668</ele>
        <time>2013-10-02T12:59:53Z</time>
      </trkpt>
      <trkpt lat="43.61906" lon="6.48469">
        <ele>667</ele>
        <time>2013-10-02T13:00:12Z</time>
      </trkpt>
      <trkpt lat="43.61914" lon="6.48471">
        <ele>666</ele>
        <time>2013-10-02T13:00:23Z</time>
      </trkpt>
      <trkpt lat="43.61922" lon="6.48474">
        <ele>664</ele>
        <time>2013-10-02T13:00:32Z</time>
      </trkpt>
      <trkpt lat="43.61931" lon="6.48473">
        <ele>663</ele>
        <time>2013-10-02T13:00:41Z</time>
      </trkpt>
      <trkpt lat="43.61938" lon="6.48479">
        <ele>664</ele>
        <time>2013-10-02T13:00:50Z</time>
      </trkpt>
      <trkpt lat="43.61944" lon="6.48486">
        <ele>664</ele>
        <time>2013-10-02T13:00:59Z</time>
      </trkpt>
      <trkpt lat="43.61945" lon="6.48486">
        <ele>664</ele>
        <time>2013-10-02T13:01:00Z</time>
      </trkpt>
      <trkpt lat="43.61958" lon="6.48501">
        <ele>662</ele>
        <time>2013-10-02T13:01:18Z</time>
      </trkpt>
      <trkpt lat="43.61963" lon="6.48509">
        <ele>660</ele>
        <time>2013-10-02T13:01:27Z</time>
      </trkpt>
      <trkpt lat="43.6197" lon="6.48516">
        <ele>661</ele>
        <time>2013-10-02T13:01:35Z</time>
      </trkpt>
      <trkpt lat="43.61977" lon="6.48524">
        <ele>662</ele>
        <time>2013-10-02T13:01:46Z</time>
      </trkpt>
      <trkpt lat="43.61983" lon="6.48531">
        <ele>662</ele>
        <time>2013-10-02T13:01:52Z</time>
      </trkpt>
      <trkpt lat="43.61991" lon="6.48537">
        <ele>661</ele>
        <time>2013-10-02T13:02:02Z</time>
      </trkpt>
      <trkpt lat="43.61992" lon="6.48537">
        <ele>661</ele>
        <time>2013-10-02T13:02:03Z</time>
      </trkpt>
      <trkpt lat="43.62006" lon="6.48545">
        <ele>662</ele>
        <time>2013-10-02T13:02:18Z</time>
      </trkpt>
      <trkpt lat="43.62013" lon="6.48551">
        <ele>661</ele>
        <time>2013-10-02T13:02:24Z</time>
      </trkpt>
      <trkpt lat="43.6202" lon="6.48555">
        <ele>661</ele>
        <time>2013-10-02T13:02:30Z</time>
      </trkpt>
      <trkpt lat="43.62028" lon="6.4856">
        <ele>661</ele>
        <time>2013-10-02T13:02:37Z</time>
      </trkpt>
      <trkpt lat="43.62036" lon="6.48564">
        <ele>662</ele>
        <time>2013-10-02T13:02:44Z</time>
      </trkpt>
      <trkpt lat="43.62044" lon="6.4857">
        <ele>662</ele>
        <time>2013-10-02T13:02:53Z</time>
      </trkpt>
      <trkpt lat="43.62052" lon="6.48575">
        <ele>663</ele>
        <time>2013-10-02T13:02:59Z</time>
      </trkpt>
      <trkpt lat="43.62059" lon="6.48581">
        <ele>662</ele>
        <time>2013-10-02T13:03:06Z</time>
      </trkpt>
      <trkpt lat="43.6206" lon="6.48581">
        <ele>662</ele>
        <time>2013-10-02T13:03:07Z</time>
      </trkpt>
      <trkpt lat="43.62071" lon="6.48597">
        <ele>662</ele>
        <time>2013-10-02T13:03:21Z</time>
      </trkpt>
      <trkpt lat="43.62074" lon="6.48607">
        <ele>662</ele>
        <time>2013-10-02T13:03:28Z</time>
      </trkpt>
      <trkpt lat="43.62077" lon="6.48619">
        <ele>663</ele>
        <time>2013-10-02T13:03:37Z</time>
      </trkpt>
      <trkpt lat="43.62079" lon="6.48631">
        <ele>662</ele>
        <time>2013-10-02T13:03:45Z</time>
      </trkpt>
      <trkpt lat="43.62082" lon="6.48642">
        <ele>661</ele>
        <time>2013-10-02T13:03:56Z</time>
      </trkpt>
      <trkpt lat="43.62087" lon="6.48651">
        <ele>660</ele>
        <time>2013-10-02T13:04:02Z</time>
      </trkpt>
      <trkpt lat="43.62091" lon="6.48661">
        <ele>658</ele>
        <time>2013-10-02T13:04:09Z</time>
      </trkpt>
      <trkpt lat="43.62091" lon="6.48663">
        <ele>658</ele>
        <time>2013-10-02T13:04:10Z</time>
      </trkpt>
      <trkpt lat="43.62093" lon="6.48683">
        <ele>656</ele>
        <time>2013-10-02T13:04:27Z</time>
      </trkpt>
      <trkpt lat="43.62095" lon="6.48694">
        <ele>656</ele>
        <time>2013-10-02T13:04:36Z</time>
      </trkpt>
      <trkpt lat="43.62097" lon="6.48704">
        <ele>654</ele>
        <time>2013-10-02T13:04:44Z</time>
      </trkpt>
      <trkpt lat="43.62099" lon="6.48717">
        <ele>654</ele>
        <time>2013-10-02T13:04:53Z</time>
      </trkpt>
      <trkpt lat="43.62103" lon="6.48727">
        <ele>653</ele>
        <time>2013-10-02T13:05:01Z</time>
      </trkpt>
      <trkpt lat="43.6211" lon="6.48734">
        <ele>653</ele>
        <time>2013-10-02T13:05:09Z</time>
      </trkpt>
      <trkpt lat="43.62118" lon="6.48738">
        <ele>652</ele>
        <time>2013-10-02T13:05:16Z</time>
      </trkpt>
      <trkpt lat="43.62119" lon="6.48739">
        <ele>652</ele>
        <time>2013-10-02T13:05:17Z</time>
      </trkpt>
      <trkpt lat="43.62132" lon="6.48749">
        <ele>653</ele>
        <time>2013-10-02T13:05:32Z</time>
      </trkpt>
      <trkpt lat="43.62139" lon="6.48755">
        <ele>653</ele>
        <time>2013-10-02T13:05:39Z</time>
      </trkpt>
      <trkpt lat="43.62146" lon="6.4876">
        <ele>653</ele>
        <time>2013-10-02T13:05:45Z</time>
      </trkpt>
      <trkpt lat="43.62154" lon="6.48763">
        <ele>654</ele>
        <time>2013-10-02T13:05:52Z</time>
      </trkpt>
      <trkpt lat="43.62162" lon="6.48767">
        <ele>653</ele>
        <time>2013-10-02T13:05:58Z</time>
      </trkpt>
      <trkpt lat="43.6217" lon="6.48773">
        <ele>653</ele>
        <time>2013-10-02T13:06:06Z</time>
      </trkpt>
      <trkpt lat="43.62177" lon="6.48777">
        <ele>654</ele>
        <time>2013-10-02T13:06:15Z</time>
      </trkpt>
      <trkpt lat="43.62185" lon="6.48782">
        <ele>653</ele>
        <time>2013-10-02T13:06:23Z</time>
      </trkpt>
      <trkpt lat="43.62186" lon="6.48782">
        <ele>654</ele>
        <time>2013-10-02T13:06:24Z</time>
      </trkpt>
      <trkpt lat="43.62202" lon="6.48783">
        <ele>655</ele>
        <time>2013-10-02T13:06:40Z</time>
      </trkpt>
      <trkpt lat="43.6221" lon="6.48786">
        <ele>655</ele>
        <time>2013-10-02T13:06:50Z</time>
      </trkpt>
      <trkpt lat="43.62218" lon="6.48787">
        <ele>656</ele>
        <time>2013-10-02T13:06:58Z</time>
      </trkpt>
      <trkpt lat="43.62226" lon="6.48788">
        <ele>656</ele>
        <time>2013-10-02T13:07:04Z</time>
      </trkpt>
      <trkpt lat="43.62234" lon="6.48791">
        <ele>657</ele>
        <time>2013-10-02T13:07:09Z</time>
      </trkpt>
      <trkpt lat="43.62242" lon="6.48795">
        <ele>656</ele>
        <time>2013-10-02T13:07:14Z</time>
      </trkpt>
      <trkpt lat="43.6225" lon="6.48797">
        <ele>657</ele>
        <time>2013-10-02T13:07:20Z</time>
      </trkpt>
      <trkpt lat="43.62258" lon="6.48799">
        <ele>657</ele>
        <time>2013-10-02T13:07:26Z</time>
      </trkpt>
      <trkpt lat="43.6226" lon="6.48799">
        <ele>657</ele>
        <time>2013-10-02T13:07:27Z</time>
      </trkpt>
      <trkpt lat="43.62275" lon="6.48799">
        <ele>657</ele>
        <time>2013-10-02T13:07:41Z</time>
      </trkpt>
      <trkpt lat="43.62283" lon="6.48798">
        <ele>656</ele>
        <time>2013-10-02T13:07:48Z</time>
      </trkpt>
      <trkpt lat="43.62292" lon="6.488">
        <ele>656</ele>
        <time>2013-10-02T13:07:55Z</time>
      </trkpt>
      <trkpt lat="43.623" lon="6.48802">
        <ele>656</ele>
        <time>2013-10-02T13:08:02Z</time>
      </trkpt>
      <trkpt lat="43.62308" lon="6.48805">
        <ele>655</ele>
        <time>2013-10-02T13:08:10Z</time>
      </trkpt>
      <trkpt lat="43.62317" lon="6.48808">
        <ele>654</ele>
        <time>2013-10-02T13:08:18Z</time>
      </trkpt>
      <trkpt lat="43.62324" lon="6.48811">
        <ele>655</ele>
        <time>2013-10-02T13:08:23Z</time>
      </trkpt>
      <trkpt lat="43.62332" lon="6.48813">
        <ele>655</ele>
        <time>2013-10-02T13:08:28Z</time>
      </trkpt>
      <trkpt lat="43.62334" lon="6.48814">
        <ele>655</ele>
        <time>2013-10-02T13:08:29Z</time>
      </trkpt>
      <trkpt lat="43.62349" lon="6.48819">
        <ele>652</ele>
        <time>2013-10-02T13:08:40Z</time>
      </trkpt>
      <trkpt lat="43.62358" lon="6.48819">
        <ele>652</ele>
        <time>2013-10-02T13:08:49Z</time>
      </trkpt>
      <trkpt lat="43.62366" lon="6.48821">
        <ele>651</ele>
        <time>2013-10-02T13:08:55Z</time>
      </trkpt>
      <trkpt lat="43.62374" lon="6.48823">
        <ele>652</ele>
        <time>2013-10-02T13:09:01Z</time>
      </trkpt>
      <trkpt lat="43.62382" lon="6.48825">
        <ele>652</ele>
        <time>2013-10-02T13:09:08Z</time>
      </trkpt>
      <trkpt lat="43.6239" lon="6.48828">
        <ele>650</ele>
        <time>2013-10-02T13:09:15Z</time>
      </trkpt>
      <trkpt lat="43.62398" lon="6.48832">
        <ele>650</ele>
        <time>2013-10-02T13:09:22Z</time>
      </trkpt>
      <trkpt lat="43.62406" lon="6.48836">
        <ele>648</ele>
        <time>2013-10-02T13:09:29Z</time>
      </trkpt>
      <trkpt lat="43.62407" lon="6.48837">
        <ele>649</ele>
        <time>2013-10-02T13:09:30Z</time>
      </trkpt>
      <trkpt lat="43.62421" lon="6.48846">
        <ele>648</ele>
        <time>2013-10-02T13:09:43Z</time>
      </trkpt>
      <trkpt lat="43.62428" lon="6.48853">
        <ele>649</ele>
        <time>2013-10-02T13:09:51Z</time>
      </trkpt>
      <trkpt lat="43.62433" lon="6.48863">
        <ele>648</ele>
        <time>2013-10-02T13:09:58Z</time>
      </trkpt>
      <trkpt lat="43.62438" lon="6.48871">
        <ele>647</ele>
        <time>2013-10-02T13:10:03Z</time>
      </trkpt>
      <trkpt lat="43.62443" lon="6.4888">
        <ele>646</ele>
        <time>2013-10-02T13:10:09Z</time>
      </trkpt>
      <trkpt lat="43.62448" lon="6.4889">
        <ele>646</ele>
        <time>2013-10-02T13:10:16Z</time>
      </trkpt>
      <trkpt lat="43.62451" lon="6.489">
        <ele>645</ele>
        <time>2013-10-02T13:10:23Z</time>
      </trkpt>
      <trkpt lat="43.62455" lon="6.4891">
        <ele>644</ele>
        <time>2013-10-02T13:10:30Z</time>
      </trkpt>
      <trkpt lat="43.62456" lon="6.48912">
        <ele>644</ele>
        <time>2013-10-02T13:10:31Z</time>
      </trkpt>
      <trkpt lat="43.62462" lon="6.48932">
        <ele>643</ele>
        <time>2013-10-02T13:10:44Z</time>
      </trkpt>
      <trkpt lat="43.62464" lon="6.48943">
        <ele>643</ele>
        <time>2013-10-02T13:10:50Z</time>
      </trkpt>
      <trkpt lat="43.62467" lon="6.48955">
        <ele>642</ele>
        <time>2013-10-02T13:10:58Z</time>
      </trkpt>
      <trkpt lat="43.62469" lon="6.48966">
        <ele>641</ele>
        <time>2013-10-02T13:11:06Z</time>
      </trkpt>
      <trkpt lat="43.62473" lon="6.48977">
        <ele>640</ele>
        <time>2013-10-02T13:11:16Z</time>
      </trkpt>
      <trkpt lat="43.62475" lon="6.48989">
        <ele>640</ele>
        <time>2013-10-02T13:11:24Z</time>
      </trkpt>
      <trkpt lat="43.62479" lon="6.48998">
        <ele>640</ele>
        <time>2013-10-02T13:11:33Z</time>
      </trkpt>
      <trkpt lat="43.6248" lon="6.48999">
        <ele>640</ele>
        <time>2013-10-02T13:11:34Z</time>
      </trkpt>
      <trkpt lat="43.62491" lon="6.49014">
        <ele>639</ele>
        <time>2013-10-02T13:11:51Z</time>
      </trkpt>
      <trkpt lat="43.62498" lon="6.49022">
        <ele>637</ele>
        <time>2013-10-02T13:11:59Z</time>
      </trkpt>
      <trkpt lat="43.62503" lon="6.49029">
        <ele>635</ele>
        <time>2013-10-02T13:12:05Z</time>
      </trkpt>
      <trkpt lat="43.62509" lon="6.49036">
        <ele>636</ele>
        <time>2013-10-02T13:12:12Z</time>
      </trkpt>
      <trkpt lat="43.62516" lon="6.49043">
        <ele>636</ele>
        <time>2013-10-02T13:12:18Z</time>
      </trkpt>
      <trkpt lat="43.62523" lon="6.4905">
        <ele>634</ele>
        <time>2013-10-02T13:12:27Z</time>
      </trkpt>
      <trkpt lat="43.62529" lon="6.49059">
        <ele>630</ele>
        <time>2013-10-02T13:12:37Z</time>
      </trkpt>
      <trkpt lat="43.62529" lon="6.4906">
        <ele>631</ele>
        <time>2013-10-02T13:12:38Z</time>
      </trkpt>
      <trkpt lat="43.62537" lon="6.49079">
        <ele>629</ele>
        <time>2013-10-02T13:12:51Z</time>
      </trkpt>
      <trkpt lat="43.6254" lon="6.4909">
        <ele>630</ele>
        <time>2013-10-02T13:12:58Z</time>
      </trkpt>
      <trkpt lat="43.62543" lon="6.491">
        <ele>629</ele>
        <time>2013-10-02T13:13:06Z</time>
      </trkpt>
      <trkpt lat="43.62549" lon="6.49109">
        <ele>628</ele>
        <time>2013-10-02T13:13:14Z</time>
      </trkpt>
      <trkpt lat="43.62553" lon="6.49119">
        <ele>628</ele>
        <time>2013-10-02T13:13:23Z</time>
      </trkpt>
      <trkpt lat="43.62557" lon="6.4913">
        <ele>628</ele>
        <time>2013-10-02T13:13:36Z</time>
      </trkpt>
      <trkpt lat="43.62563" lon="6.49139">
        <ele>630</ele>
        <time>2013-10-02T13:14:45Z</time>
      </trkpt>
      <trkpt lat="43.62563" lon="6.4914">
        <ele>630</ele>
        <time>2013-10-02T13:14:46Z</time>
      </trkpt>
      <trkpt lat="43.62579" lon="6.49146">
        <ele>628</ele>
        <time>2013-10-02T13:15:13Z</time>
      </trkpt>
      <trkpt lat="43.62587" lon="6.49147">
        <ele>630</ele>
        <time>2013-10-02T13:15:23Z</time>
      </trkpt>
      <trkpt lat="43.62596" lon="6.49147">
        <ele>631</ele>
        <time>2013-10-02T13:15:32Z</time>
      </trkpt>
      <trkpt lat="43.62604" lon="6.49145">
        <ele>632</ele>
        <time>2013-10-02T13:15:44Z</time>
      </trkpt>
      <trkpt lat="43.62612" lon="6.49151">
        <ele>632</ele>
        <time>2013-10-02T13:16:01Z</time>
      </trkpt>
      <trkpt lat="43.62613" lon="6.49152">
        <ele>633</ele>
        <time>2013-10-02T13:16:02Z</time>
      </trkpt>
      <trkpt lat="43.62625" lon="6.49167">
        <ele>631</ele>
        <time>2013-10-02T13:16:18Z</time>
      </trkpt>
      <trkpt lat="43.62629" lon="6.49175">
        <ele>631</ele>
        <time>2013-10-02T13:16:24Z</time>
      </trkpt>
      <trkpt lat="43.62633" lon="6.49186">
        <ele>630</ele>
        <time>2013-10-02T13:16:31Z</time>
      </trkpt>
      <trkpt lat="43.62635" lon="6.49198">
        <ele>629</ele>
        <time>2013-10-02T13:16:38Z</time>
      </trkpt>
      <trkpt lat="43.62636" lon="6.49209">
        <ele>629</ele>
        <time>2013-10-02T13:16:45Z</time>
      </trkpt>
      <trkpt lat="43.62635" lon="6.4922">
        <ele>627</ele>
        <time>2013-10-02T13:16:54Z</time>
      </trkpt>
      <trkpt lat="43.62637" lon="6.49232">
        <ele>626</ele>
        <time>2013-10-02T13:17:05Z</time>
      </trkpt>
      <trkpt lat="43.62637" lon="6.49233">
        <ele>626</ele>
        <time>2013-10-02T13:17:06Z</time>
      </trkpt>
      <trkpt lat="43.62638" lon="6.49255">
        <ele>624</ele>
        <time>2013-10-02T13:17:20Z</time>
      </trkpt>
      <trkpt lat="43.62641" lon="6.49267">
        <ele>623</ele>
        <time>2013-10-02T13:17:28Z</time>
      </trkpt>
      <trkpt lat="43.62645" lon="6.49276">
        <ele>621</ele>
        <time>2013-10-02T13:17:35Z</time>
      </trkpt>
      <trkpt lat="43.62649" lon="6.49285">
        <ele>621</ele>
        <time>2013-10-02T13:17:41Z</time>
      </trkpt>
      <trkpt lat="43.62653" lon="6.49295">
        <ele>619</ele>
        <time>2013-10-02T13:17:48Z</time>
      </trkpt>
      <trkpt lat="43.62657" lon="6.49306">
        <ele>617</ele>
        <time>2013-10-02T13:18:00Z</time>
      </trkpt>
      <trkpt lat="43.62661" lon="6.49317">
        <ele>618</ele>
        <time>2013-10-02T13:18:14Z</time>
      </trkpt>
      <trkpt lat="43.62661" lon="6.49317">
        <ele>618</ele>
        <time>2013-10-02T13:18:15Z</time>
      </trkpt>
      <trkpt lat="43.62663" lon="6.4934">
        <ele>618</ele>
        <time>2013-10-02T13:18:39Z</time>
      </trkpt>
      <trkpt lat="43.62662" lon="6.49352">
        <ele>619</ele>
        <time>2013-10-02T13:18:48Z</time>
      </trkpt>
      <trkpt lat="43.62665" lon="6.49362">
        <ele>618</ele>
        <time>2013-10-02T13:18:56Z</time>
      </trkpt>
      <trkpt lat="43.62671" lon="6.4937">
        <ele>617</ele>
        <time>2013-10-02T13:19:05Z</time>
      </trkpt>
      <trkpt lat="43.62679" lon="6.49374">
        <ele>617</ele>
        <time>2013-10-02T13:19:14Z</time>
      </trkpt>
      <trkpt lat="43.62687" lon="6.49376">
        <ele>618</ele>
        <time>2013-10-02T13:19:23Z</time>
      </trkpt>
      <trkpt lat="43.62688" lon="6.49377">
        <ele>618</ele>
        <time>2013-10-02T13:19:24Z</time>
      </trkpt>
      <trkpt lat="43.62703" lon="6.49385">
        <ele>617</ele>
        <time>2013-10-02T13:19:37Z</time>
      </trkpt>
      <trkpt lat="43.62711" lon="6.49388">
        <ele>617</ele>
        <time>2013-10-02T13:19:44Z</time>
      </trkpt>
      <trkpt lat="43.62719" lon="6.49392">
        <ele>617</ele>
        <time>2013-10-02T13:19:51Z</time>
      </trkpt>
      <trkpt lat="43.62726" lon="6.49395">
        <ele>617</ele>
        <time>2013-10-02T13:19:58Z</time>
      </trkpt>
      <trkpt lat="43.62734" lon="6.49398">
        <ele>616</ele>
        <time>2013-10-02T13:20:06Z</time>
      </trkpt>
      <trkpt lat="43.62743" lon="6.49402">
        <ele>617</ele>
        <time>2013-10-02T13:20:15Z</time>
      </trkpt>
      <trkpt lat="43.6275" lon="6.49406">
        <ele>618</ele>
        <time>2013-10-02T13:20:25Z</time>
      </trkpt>
      <trkpt lat="43.62751" lon="6.49407">
        <ele>618</ele>
        <time>2013-10-02T13:20:26Z</time>
      </trkpt>
      <trkpt lat="43.62759" lon="6.49425">
        <ele>616</ele>
        <time>2013-10-02T13:20:42Z</time>
      </trkpt>
      <trkpt lat="43.62762" lon="6.49436">
        <ele>616</ele>
        <time>2013-10-02T13:20:53Z</time>
      </trkpt>
      <trkpt lat="43.62765" lon="6.49447">
        <ele>616</ele>
        <time>2013-10-02T13:21:01Z</time>
      </trkpt>
      <trkpt lat="43.62767" lon="6.49458">
        <ele>616</ele>
        <time>2013-10-02T13:21:09Z</time>
      </trkpt>
      <trkpt lat="43.6277" lon="6.4947">
        <ele>615</ele>
        <time>2013-10-02T13:21:17Z</time>
      </trkpt>
      <trkpt lat="43.62774" lon="6.49481">
        <ele>616</ele>
        <time>2013-10-02T13:21:27Z</time>
      </trkpt>
      <trkpt lat="43.62774" lon="6.49483">
        <ele>616</ele>
        <time>2013-10-02T13:21:28Z</time>
      </trkpt>
      <trkpt lat="43.62771" lon="6.49499">
        <ele>614</ele>
        <time>2013-10-02T13:21:43Z</time>
      </trkpt>
      <trkpt lat="43.62763" lon="6.49501">
        <ele>616</ele>
        <time>2013-10-02T13:21:53Z</time>
      </trkpt>
      <trkpt lat="43.62755" lon="6.495">
        <ele>615</ele>
        <time>2013-10-02T13:21:59Z</time>
      </trkpt>
      <trkpt lat="43.62747" lon="6.49498">
        <ele>616</ele>
        <time>2013-10-02T13:22:05Z</time>
      </trkpt>
      <trkpt lat="43.62739" lon="6.49498">
        <ele>617</ele>
        <time>2013-10-02T13:22:12Z</time>
      </trkpt>
      <trkpt lat="43.62731" lon="6.49499">
        <ele>617</ele>
        <time>2013-10-02T13:22:19Z</time>
      </trkpt>
      <trkpt lat="43.62723" lon="6.49501">
        <ele>616</ele>
        <time>2013-10-02T13:22:26Z</time>
      </trkpt>
      <trkpt lat="43.62714" lon="6.49503">
        <ele>616</ele>
        <time>2013-10-02T13:22:33Z</time>
      </trkpt>
      <trkpt lat="43.62713" lon="6.49503">
        <ele>616</ele>
        <time>2013-10-02T13:22:34Z</time>
      </trkpt>
      <trkpt lat="43.62698" lon="6.49504">
        <ele>617</ele>
        <time>2013-10-02T13:22:47Z</time>
      </trkpt>
      <trkpt lat="43.62689" lon="6.49505">
        <ele>617</ele>
        <time>2013-10-02T13:22:54Z</time>
      </trkpt>
      <trkpt lat="43.62681" lon="6.49507">
        <ele>618</ele>
        <time>2013-10-02T13:23:02Z</time>
      </trkpt>
      <trkpt lat="43.62673" lon="6.49512">
        <ele>620</ele>
        <time>2013-10-02T13:23:10Z</time>
      </trkpt>
      <trkpt lat="43.62666" lon="6.49519">
        <ele>618</ele>
        <time>2013-10-02T13:23:18Z</time>
      </trkpt>
      <trkpt lat="43.6266" lon="6.49526">
        <ele>620</ele>
        <time>2013-10-02T13:23:26Z</time>
      </trkpt>
      <trkpt lat="43.62653" lon="6.49533">
        <ele>621</ele>
        <time>2013-10-02T13:23:35Z</time>
      </trkpt>
      <trkpt lat="43.62652" lon="6.49533">
        <ele>621</ele>
        <time>2013-10-02T13:23:36Z</time>
      </trkpt>
      <trkpt lat="43.62637" lon="6.49541">
        <ele>623</ele>
        <time>2013-10-02T13:23:55Z</time>
      </trkpt>
      <trkpt lat="43.6263" lon="6.49548">
        <ele>624</ele>
        <time>2013-10-02T13:24:04Z</time>
      </trkpt>
      <trkpt lat="43.62624" lon="6.49557">
        <ele>624</ele>
        <time>2013-10-02T13:24:11Z</time>
      </trkpt>
      <trkpt lat="43.6262" lon="6.49568">
        <ele>624</ele>
        <time>2013-10-02T13:24:21Z</time>
      </trkpt>
      <trkpt lat="43.62621" lon="6.4958">
        <ele>626</ele>
        <time>2013-10-02T13:24:30Z</time>
      </trkpt>
      <trkpt lat="43.62623" lon="6.49591">
        <ele>626</ele>
        <time>2013-10-02T13:24:39Z</time>
      </trkpt>
      <trkpt lat="43.62623" lon="6.49592">
        <ele>626</ele>
        <time>2013-10-02T13:24:40Z</time>
      </trkpt>
      <trkpt lat="43.62624" lon="6.49614">
        <ele>626</ele>
        <time>2013-10-02T13:24:55Z</time>
      </trkpt>
      <trkpt lat="43.62626" lon="6.49624">
        <ele>626</ele>
        <time>2013-10-02T13:25:00Z</time>
      </trkpt>
      <trkpt lat="43.62623" lon="6.49636">
        <ele>626</ele>
        <time>2013-10-02T13:25:07Z</time>
      </trkpt>
      <trkpt lat="43.6262" lon="6.49647">
        <ele>626</ele>
        <time>2013-10-02T13:25:14Z</time>
      </trkpt>
      <trkpt lat="43.62617" lon="6.49657">
        <ele>626</ele>
        <time>2013-10-02T13:25:22Z</time>
      </trkpt>
      <trkpt lat="43.62616" lon="6.49669">
        <ele>625</ele>
        <time>2013-10-02T13:25:30Z</time>
      </trkpt>
      <trkpt lat="43.62617" lon="6.49681">
        <ele>624</ele>
        <time>2013-10-02T13:26:20Z</time>
      </trkpt>
      <trkpt lat="43.62617" lon="6.49682">
        <ele>624</ele>
        <time>2013-10-02T13:26:21Z</time>
      </trkpt>
      <trkpt lat="43.62616" lon="6.49705">
        <ele>623</ele>
        <time>2013-10-02T13:26:54Z</time>
      </trkpt>
      <trkpt lat="43.62615" lon="6.49717">
        <ele>622</ele>
        <time>2013-10-02T13:27:04Z</time>
      </trkpt>
      <trkpt lat="43.62614" lon="6.49729">
        <ele>622</ele>
        <time>2013-10-02T13:27:13Z</time>
      </trkpt>
      <trkpt lat="43.62613" lon="6.49741">
        <ele>621</ele>
        <time>2013-10-02T13:27:22Z</time>
      </trkpt>
      <trkpt lat="43.62613" lon="6.49743">
        <ele>622</ele>
        <time>2013-10-02T13:27:23Z</time>
      </trkpt>
      <trkpt lat="43.62611" lon="6.49765">
        <ele>620</ele>
        <time>2013-10-02T13:27:38Z</time>
      </trkpt>
      <trkpt lat="43.6261" lon="6.49777">
        <ele>620</ele>
        <time>2013-10-02T13:27:47Z</time>
      </trkpt>
      <trkpt lat="43.6261" lon="6.49789">
        <ele>619</ele>
        <time>2013-10-02T13:27:58Z</time>
      </trkpt>
      <trkpt lat="43.62607" lon="6.498">
        <ele>620</ele>
        <time>2013-10-02T13:28:05Z</time>
      </trkpt>
      <trkpt lat="43.62601" lon="6.49807">
        <ele>622</ele>
        <time>2013-10-02T13:28:19Z</time>
      </trkpt>
      <trkpt lat="43.62596" lon="6.49817">
        <ele>624</ele>
        <time>2013-10-02T13:28:33Z</time>
      </trkpt>
      <trkpt lat="43.62596" lon="6.49817">
        <ele>624</ele>
        <time>2013-10-02T13:28:34Z</time>
      </trkpt>
      <trkpt lat="43.62585" lon="6.49835">
        <ele>628</ele>
        <time>2013-10-02T13:30:50Z</time>
      </trkpt>
      <trkpt lat="43.62585" lon="6.49835">
        <ele>627</ele>
        <time>2013-10-02T13:30:51Z</time>
      </trkpt>
      <trkpt lat="43.62573" lon="6.49852">
        <ele>630</ele>
        <time>2013-10-02T13:31:14Z</time>
      </trkpt>
      <trkpt lat="43.62567" lon="6.4986">
        <ele>631</ele>
        <time>2013-10-02T13:31:28Z</time>
      </trkpt>
      <trkpt lat="43.62563" lon="6.49871">
        <ele>631</ele>
        <time>2013-10-02T13:31:53Z</time>
      </trkpt>
      <trkpt lat="43.62563" lon="6.49872">
        <ele>631</ele>
        <time>2013-10-02T13:31:54Z</time>
      </trkpt>
      <trkpt lat="43.62559" lon="6.49893">
        <ele>630</ele>
        <time>2013-10-02T13:32:22Z</time>
      </trkpt>
      <trkpt lat="43.62562" lon="6.49905">
        <ele>630</ele>
        <time>2013-10-02T13:32:30Z</time>
      </trkpt>
      <trkpt lat="43.62561" lon="6.49917">
        <ele>630</ele>
        <time>2013-10-02T13:32:39Z</time>
      </trkpt>
      <trkpt lat="43.6256" lon="6.49929">
        <ele>628</ele>
        <time>2013-10-02T13:32:51Z</time>
      </trkpt>
      <trkpt lat="43.62562" lon="6.4994">
        <ele>628</ele>
        <time>2013-10-02T13:32:59Z</time>
      </trkpt>
      <trkpt lat="43.62562" lon="6.49942">
        <ele>628</ele>
        <time>2013-10-02T13:33:00Z</time>
      </trkpt>
      <trkpt lat="43.62562" lon="6.49963">
        <ele>626</ele>
        <time>2013-10-02T13:33:16Z</time>
      </trkpt>
      <trkpt lat="43.62561" lon="6.49975">
        <ele>628</ele>
        <time>2013-10-02T13:33:26Z</time>
      </trkpt>
      <trkpt lat="43.62563" lon="6.49986">
        <ele>626</ele>
        <time>2013-10-02T13:33:38Z</time>
      </trkpt>
      <trkpt lat="43.62565" lon="6.49996">
        <ele>626</ele>
        <time>2013-10-02T13:33:46Z</time>
      </trkpt>
      <trkpt lat="43.62567" lon="6.50007">
        <ele>624</ele>
        <time>2013-10-02T13:33:52Z</time>
      </trkpt>
      <trkpt lat="43.62567" lon="6.50018">
        <ele>623</ele>
        <time>2013-10-02T13:33:59Z</time>
      </trkpt>
      <trkpt lat="43.62568" lon="6.50029">
        <ele>624</ele>
        <time>2013-10-02T13:34:06Z</time>
      </trkpt>
      <trkpt lat="43.62568" lon="6.50031">
        <ele>624</ele>
        <time>2013-10-02T13:34:07Z</time>
      </trkpt>
      <trkpt lat="43.62568" lon="6.50052">
        <ele>623</ele>
        <time>2013-10-02T13:34:20Z</time>
      </trkpt>
      <trkpt lat="43.62567" lon="6.50064">
        <ele>622</ele>
        <time>2013-10-02T13:34:27Z</time>
      </trkpt>
      <trkpt lat="43.62568" lon="6.50075">
        <ele>621</ele>
        <time>2013-10-02T13:34:37Z</time>
      </trkpt>
      <trkpt lat="43.62566" lon="6.50087">
        <ele>621</ele>
        <time>2013-10-02T13:34:47Z</time>
      </trkpt>
      <trkpt lat="43.6256" lon="6.50096">
        <ele>623</ele>
        <time>2013-10-02T13:35:01Z</time>
      </trkpt>
      <trkpt lat="43.62554" lon="6.50103">
        <ele>621</ele>
        <time>2013-10-02T13:35:12Z</time>
      </trkpt>
      <trkpt lat="43.62553" lon="6.50104">
        <ele>621</ele>
        <time>2013-10-02T13:35:13Z</time>
      </trkpt>
      <trkpt lat="43.62545" lon="6.50122">
        <ele>622</ele>
        <time>2013-10-02T13:35:38Z</time>
      </trkpt>
      <trkpt lat="43.6254" lon="6.50131">
        <ele>626</ele>
        <time>2013-10-02T13:37:23Z</time>
      </trkpt>
      <trkpt lat="43.62539" lon="6.50132">
        <ele>626</ele>
        <time>2013-10-02T13:37:24Z</time>
      </trkpt>
      <trkpt lat="43.6253" lon="6.50151">
        <ele>628</ele>
        <time>2013-10-02T13:37:54Z</time>
      </trkpt>
      <trkpt lat="43.62527" lon="6.50162">
        <ele>626</ele>
        <time>2013-10-02T13:38:03Z</time>
      </trkpt>
      <trkpt lat="43.62523" lon="6.50172">
        <ele>626</ele>
        <time>2013-10-02T13:38:12Z</time>
      </trkpt>
      <trkpt lat="43.62519" lon="6.50183">
        <ele>625</ele>
        <time>2013-10-02T13:38:21Z</time>
      </trkpt>
      <trkpt lat="43.62514" lon="6.50192">
        <ele>624</ele>
        <time>2013-10-02T13:38:28Z</time>
      </trkpt>
      <trkpt lat="43.62514" lon="6.50193">
        <ele>624</ele>
        <time>2013-10-02T13:38:29Z</time>
      </trkpt>
      <trkpt lat="43.62513" lon="6.50215">
        <ele>622</ele>
        <time>2013-10-02T13:38:46Z</time>
      </trkpt>
      <trkpt lat="43.62508" lon="6.50223">
        <ele>621</ele>
        <time>2013-10-02T13:38:53Z</time>
      </trkpt>
      <trkpt lat="43.62505" lon="6.50233">
        <ele>622</ele>
        <time>2013-10-02T13:38:57Z</time>
      </trkpt>
      <trkpt lat="43.62502" lon="6.50244">
        <ele>621</ele>
        <time>2013-10-02T13:39:05Z</time>
      </trkpt>
      <trkpt lat="43.62498" lon="6.50255">
        <ele>621</ele>
        <time>2013-10-02T13:39:12Z</time>
      </trkpt>
      <trkpt lat="43.62494" lon="6.50265">
        <ele>620</ele>
        <time>2013-10-02T13:39:20Z</time>
      </trkpt>
      <trkpt lat="43.6249" lon="6.50275">
        <ele>621</ele>
        <time>2013-10-02T13:39:28Z</time>
      </trkpt>
      <trkpt lat="43.62487" lon="6.50286">
        <ele>620</ele>
        <time>2013-10-02T13:39:36Z</time>
      </trkpt>
      <trkpt lat="43.62486" lon="6.50288">
        <ele>620</ele>
        <time>2013-10-02T13:39:37Z</time>
      </trkpt>
      <trkpt lat="43.62479" lon="6.50308">
        <ele>620</ele>
        <time>2013-10-02T13:39:50Z</time>
      </trkpt>
      <trkpt lat="43.62475" lon="6.50318">
        <ele>618</ele>
        <time>2013-10-02T13:39:57Z</time>
      </trkpt>
      <trkpt lat="43.6247" lon="6.50326">
        <ele>620</ele>
        <time>2013-10-02T13:40:04Z</time>
      </trkpt>
      <trkpt lat="43.62463" lon="6.50332">
        <ele>619</ele>
        <time>2013-10-02T13:40:11Z</time>
      </trkpt>
      <trkpt lat="43.62456" lon="6.50339">
        <ele>618</ele>
        <time>2013-10-02T13:40:19Z</time>
      </trkpt>
      <trkpt lat="43.62451" lon="6.50348">
        <ele>618</ele>
        <time>2013-10-02T13:40:27Z</time>
      </trkpt>
      <trkpt lat="43.62446" lon="6.50356">
        <ele>619</ele>
        <time>2013-10-02T13:40:33Z</time>
      </trkpt>
      <trkpt lat="43.6244" lon="6.50365">
        <ele>618</ele>
        <time>2013-10-02T13:40:40Z</time>
      </trkpt>
      <trkpt lat="43.6244" lon="6.50366">
        <ele>619</ele>
        <time>2013-10-02T13:40:41Z</time>
      </trkpt>
      <trkpt lat="43.62431" lon="6.50384">
        <ele>617</ele>
        <time>2013-10-02T13:40:55Z</time>
      </trkpt>
      <trkpt lat="43.62427" lon="6.50394">
        <ele>617</ele>
        <time>2013-10-02T13:41:02Z</time>
      </trkpt>
      <trkpt lat="43.62422" lon="6.50403">
        <ele>616</ele>
        <time>2013-10-02T13:41:09Z</time>
      </trkpt>
      <trkpt lat="43.62416" lon="6.5041">
        <ele>617</ele>
        <time>2013-10-02T13:41:16Z</time>
      </trkpt>
      <trkpt lat="43.6241" lon="6.50418">
        <ele>617</ele>
        <time>2013-10-02T13:41:23Z</time>
      </trkpt>
      <trkpt lat="43.62404" lon="6.50427">
        <ele>615</ele>
        <time>2013-10-02T13:41:31Z</time>
      </trkpt>
      <trkpt lat="43.62397" lon="6.50433">
        <ele>615</ele>
        <time>2013-10-02T13:41:39Z</time>
      </trkpt>
      <trkpt lat="43.62395" lon="6.50444">
        <ele>616</ele>
        <time>2013-10-02T13:41:48Z</time>
      </trkpt>
      <trkpt lat="43.62395" lon="6.50446">
        <ele>616</ele>
        <time>2013-10-02T13:41:49Z</time>
      </trkpt>
      <trkpt lat="43.62389" lon="6.50464">
        <ele>616</ele>
        <time>2013-10-02T13:42:02Z</time>
      </trkpt>
      <trkpt lat="43.62384" lon="6.50473">
        <ele>615</ele>
        <time>2013-10-02T13:42:08Z</time>
      </trkpt>
      <trkpt lat="43.62377" lon="6.50481">
        <ele>615</ele>
        <time>2013-10-02T13:42:16Z</time>
      </trkpt>
      <trkpt lat="43.62372" lon="6.50488">
        <ele>614</ele>
        <time>2013-10-02T13:42:24Z</time>
      </trkpt>
      <trkpt lat="43.62366" lon="6.50498">
        <ele>613</ele>
        <time>2013-10-02T13:42:39Z</time>
      </trkpt>
      <trkpt lat="43.62363" lon="6.50509">
        <ele>613</ele>
        <time>2013-10-02T13:43:13Z</time>
      </trkpt>
      <trkpt lat="43.62363" lon="6.50509">
        <ele>613</ele>
        <time>2013-10-02T13:43:14Z</time>
      </trkpt>
      <trkpt lat="43.62372" lon="6.50511">
        <ele>614</ele>
        <time>2013-10-02T13:45:35Z</time>
      </trkpt>
      <trkpt lat="43.62363" lon="6.50506">
        <ele>614</ele>
        <time>2013-10-02T13:47:01Z</time>
      </trkpt>
      <trkpt lat="43.62361" lon="6.50518">
        <ele>614</ele>
        <time>2013-10-02T13:48:11Z</time>
      </trkpt>
      <trkpt lat="43.62348" lon="6.50532">
        <ele>615</ele>
        <time>2013-10-02T13:48:34Z</time>
      </trkpt>
      <trkpt lat="43.6234" lon="6.50537">
        <ele>614</ele>
        <time>2013-10-02T13:48:43Z</time>
      </trkpt>
      <trkpt lat="43.62333" lon="6.50542">
        <ele>615</ele>
        <time>2013-10-02T13:48:51Z</time>
      </trkpt>
      <trkpt lat="43.62326" lon="6.50546">
        <ele>616</ele>
        <time>2013-10-02T13:48:58Z</time>
      </trkpt>
      <trkpt lat="43.62318" lon="6.5055">
        <ele>617</ele>
        <time>2013-10-02T13:49:04Z</time>
      </trkpt>
      <trkpt lat="43.6231" lon="6.50554">
        <ele>617</ele>
        <time>2013-10-02T13:49:11Z</time>
      </trkpt>
      <trkpt lat="43.62301" lon="6.50558">
        <ele>617</ele>
        <time>2013-10-02T13:49:19Z</time>
      </trkpt>
      <trkpt lat="43.623" lon="6.50559">
        <ele>617</ele>
        <time>2013-10-02T13:49:20Z</time>
      </trkpt>
      <trkpt lat="43.62285" lon="6.50567">
        <ele>617</ele>
        <time>2013-10-02T13:49:36Z</time>
      </trkpt>
      <trkpt lat="43.62277" lon="6.50572">
        <ele>616</ele>
        <time>2013-10-02T13:49:44Z</time>
      </trkpt>
      <trkpt lat="43.6227" lon="6.50578">
        <ele>616</ele>
        <time>2013-10-02T13:49:53Z</time>
      </trkpt>
      <trkpt lat="43.62261" lon="6.50582">
        <ele>615</ele>
        <time>2013-10-02T13:50:03Z</time>
      </trkpt>
      <trkpt lat="43.62253" lon="6.50586">
        <ele>616</ele>
        <time>2013-10-02T13:50:11Z</time>
      </trkpt>
      <trkpt lat="43.62247" lon="6.50592">
        <ele>616</ele>
        <time>2013-10-02T13:50:17Z</time>
      </trkpt>
      <trkpt lat="43.6224" lon="6.50597">
        <ele>615</ele>
        <time>2013-10-02T13:50:23Z</time>
      </trkpt>
      <trkpt lat="43.62239" lon="6.50597">
        <ele>615</ele>
        <time>2013-10-02T13:50:24Z</time>
      </trkpt>
      <trkpt lat="43.62224" lon="6.50603">
        <ele>615</ele>
        <time>2013-10-02T13:50:38Z</time>
      </trkpt>
      <trkpt lat="43.62217" lon="6.50606">
        <ele>613</ele>
        <time>2013-10-02T13:50:45Z</time>
      </trkpt>
      <trkpt lat="43.6221" lon="6.5061">
        <ele>613</ele>
        <time>2013-10-02T13:50:52Z</time>
      </trkpt>
      <trkpt lat="43.62202" lon="6.50616">
        <ele>613</ele>
        <time>2013-10-02T13:51:00Z</time>
      </trkpt>
      <trkpt lat="43.62193" lon="6.50618">
        <ele>612</ele>
        <time>2013-10-02T13:51:08Z</time>
      </trkpt>
      <trkpt lat="43.62185" lon="6.50621">
        <ele>610</ele>
        <time>2013-10-02T13:51:16Z</time>
      </trkpt>
      <trkpt lat="43.62179" lon="6.50627">
        <ele>608</ele>
        <time>2013-10-02T13:51:22Z</time>
      </trkpt>
      <trkpt lat="43.6217" lon="6.50631">
        <ele>609</ele>
        <time>2013-10-02T13:51:28Z</time>
      </trkpt>
      <trkpt lat="43.6217" lon="6.50631">
        <ele>609</ele>
        <time>2013-10-02T13:51:29Z</time>
      </trkpt>
      <trkpt lat="43.62154" lon="6.50638">
        <ele>609</ele>
        <time>2013-10-02T13:51:41Z</time>
      </trkpt>
      <trkpt lat="43.62146" lon="6.50642">
        <ele>610</ele>
        <time>2013-10-02T13:51:48Z</time>
      </trkpt>
      <trkpt lat="43.62138" lon="6.50647">
        <ele>608</ele>
        <time>2013-10-02T13:52:00Z</time>
      </trkpt>
      <trkpt lat="43.62131" lon="6.50652">
        <ele>607</ele>
        <time>2013-10-02T13:52:06Z</time>
      </trkpt>
      <trkpt lat="43.62123" lon="6.50655">
        <ele>608</ele>
        <time>2013-10-02T13:52:11Z</time>
      </trkpt>
      <trkpt lat="43.62116" lon="6.5066">
        <ele>607</ele>
        <time>2013-10-02T13:52:19Z</time>
      </trkpt>
      <trkpt lat="43.62109" lon="6.50665">
        <ele>607</ele>
        <time>2013-10-02T13:52:26Z</time>
      </trkpt>
      <trkpt lat="43.62101" lon="6.5067">
        <ele>606</ele>
        <time>2013-10-02T13:52:33Z</time>
      </trkpt>
      <trkpt lat="43.621" lon="6.50671">
        <ele>606</ele>
        <time>2013-10-02T13:52:34Z</time>
      </trkpt>
      <trkpt lat="43.62085" lon="6.50682">
        <ele>604</ele>
        <time>2013-10-02T13:52:51Z</time>
      </trkpt>
      <trkpt lat="43.62078" lon="6.50689">
        <ele>602</ele>
        <time>2013-10-02T13:53:00Z</time>
      </trkpt>
      <trkpt lat="43.6207" lon="6.50692">
        <ele>603</ele>
        <time>2013-10-02T13:53:06Z</time>
      </trkpt>
      <trkpt lat="43.62063" lon="6.50696">
        <ele>602</ele>
        <time>2013-10-02T13:53:13Z</time>
      </trkpt>
      <trkpt lat="43.62055" lon="6.50701">
        <ele>601</ele>
        <time>2013-10-02T13:53:23Z</time>
      </trkpt>
      <trkpt lat="43.62048" lon="6.50707">
        <ele>601</ele>
        <time>2013-10-02T13:53:31Z</time>
      </trkpt>
      <trkpt lat="43.62041" lon="6.50714">
        <ele>601</ele>
        <time>2013-10-02T13:53:38Z</time>
      </trkpt>
      <trkpt lat="43.6204" lon="6.50714">
        <ele>601</ele>
        <time>2013-10-02T13:53:39Z</time>
      </trkpt>
      <trkpt lat="43.62027" lon="6.50724">
        <ele>599</ele>
        <time>2013-10-02T13:53:50Z</time>
      </trkpt>
      <trkpt lat="43.6202" lon="6.50732">
        <ele>598</ele>
        <time>2013-10-02T13:54:00Z</time>
      </trkpt>
      <trkpt lat="43.62012" lon="6.50737">
        <ele>599</ele>
        <time>2013-10-02T13:54:06Z</time>
      </trkpt>
      <trkpt lat="43.62006" lon="6.50742">
        <ele>598</ele>
        <time>2013-10-02T13:54:12Z</time>
      </trkpt>
      <trkpt lat="43.61999" lon="6.5075">
        <ele>597</ele>
        <time>2013-10-02T13:54:21Z</time>
      </trkpt>
      <trkpt lat="43.61993" lon="6.50758">
        <ele>596</ele>
        <time>2013-10-02T13:54:30Z</time>
      </trkpt>
      <trkpt lat="43.61988" lon="6.50765">
        <ele>596</ele>
        <time>2013-10-02T13:54:37Z</time>
      </trkpt>
      <trkpt lat="43.61982" lon="6.50773">
        <ele>596</ele>
        <time>2013-10-02T13:54:44Z</time>
      </trkpt>
      <trkpt lat="43.61981" lon="6.50774">
        <ele>596</ele>
        <time>2013-10-02T13:54:45Z</time>
      </trkpt>
      <trkpt lat="43.6197" lon="6.50791">
        <ele>595</ele>
        <time>2013-10-02T13:55:00Z</time>
      </trkpt>
      <trkpt lat="43.61965" lon="6.508">
        <ele>596</ele>
        <time>2013-10-02T13:55:10Z</time>
      </trkpt>
      <trkpt lat="43.61959" lon="6.50809">
        <ele>594</ele>
        <time>2013-10-02T13:55:21Z</time>
      </trkpt>
      <trkpt lat="43.61953" lon="6.50817">
        <ele>594</ele>
        <time>2013-10-02T13:55:29Z</time>
      </trkpt>
      <trkpt lat="43.61947" lon="6.50824">
        <ele>594</ele>
        <time>2013-10-02T13:55:38Z</time>
      </trkpt>
      <trkpt lat="43.6194" lon="6.50833">
        <ele>594</ele>
        <time>2013-10-02T13:55:46Z</time>
      </trkpt>
      <trkpt lat="43.6194" lon="6.50834">
        <ele>594</ele>
        <time>2013-10-02T13:55:47Z</time>
      </trkpt>
      <trkpt lat="43.61925" lon="6.50843">
        <ele>593</ele>
        <time>2013-10-02T13:55:58Z</time>
      </trkpt>
      <trkpt lat="43.61918" lon="6.50848">
        <ele>594</ele>
        <time>2013-10-02T13:56:05Z</time>
      </trkpt>
      <trkpt lat="43.6191" lon="6.50852">
        <ele>595</ele>
        <time>2013-10-02T13:56:10Z</time>
      </trkpt>
      <trkpt lat="43.61903" lon="6.50855">
        <ele>594</ele>
        <time>2013-10-02T13:56:16Z</time>
      </trkpt>
      <trkpt lat="43.61895" lon="6.50859">
        <ele>593</ele>
        <time>2013-10-02T13:56:22Z</time>
      </trkpt>
      <trkpt lat="43.61887" lon="6.50863">
        <ele>593</ele>
        <time>2013-10-02T13:56:28Z</time>
      </trkpt>
      <trkpt lat="43.61879" lon="6.50867">
        <ele>594</ele>
        <time>2013-10-02T13:56:34Z</time>
      </trkpt>
      <trkpt lat="43.61872" lon="6.50871">
        <ele>592</ele>
        <time>2013-10-02T13:56:41Z</time>
      </trkpt>
      <trkpt lat="43.61865" lon="6.5088">
        <ele>593</ele>
        <time>2013-10-02T13:56:53Z</time>
      </trkpt>
      <trkpt lat="43.61865" lon="6.50881">
        <ele>592</ele>
        <time>2013-10-02T13:56:54Z</time>
      </trkpt>
      <trkpt lat="43.61852" lon="6.50894">
        <ele>592</ele>
        <time>2013-10-02T13:57:06Z</time>
      </trkpt>
      <trkpt lat="43.61847" lon="6.50902">
        <ele>592</ele>
        <time>2013-10-02T13:57:14Z</time>
      </trkpt>
      <trkpt lat="43.61841" lon="6.50911">
        <ele>591</ele>
        <time>2013-10-02T13:57:22Z</time>
      </trkpt>
      <trkpt lat="43.61835" lon="6.50918">
        <ele>590</ele>
        <time>2013-10-02T13:57:28Z</time>
      </trkpt>
      <trkpt lat="43.61827" lon="6.50923">
        <ele>589</ele>
        <time>2013-10-02T13:57:35Z</time>
      </trkpt>
      <trkpt lat="43.61819" lon="6.50926">
        <ele>590</ele>
        <time>2013-10-02T13:57:42Z</time>
      </trkpt>
      <trkpt lat="43.6181" lon="6.50929">
        <ele>589</ele>
        <time>2013-10-02T13:57:47Z</time>
      </trkpt>
      <trkpt lat="43.61802" lon="6.50932">
        <ele>589</ele>
        <time>2013-10-02T13:57:55Z</time>
      </trkpt>
      <trkpt lat="43.61802" lon="6.50933">
        <ele>589</ele>
        <time>2013-10-02T13:57:56Z</time>
      </trkpt>
      <trkpt lat="43.6179" lon="6.50947">
        <ele>588</ele>
        <time>2013-10-02T13:58:13Z</time>
      </trkpt>
      <trkpt lat="43.61783" lon="6.50952">
        <ele>588</ele>
        <time>2013-10-02T13:58:19Z</time>
      </trkpt>
      <trkpt lat="43.61775" lon="6.50956">
        <ele>589</ele>
        <time>2013-10-02T13:58:29Z</time>
      </trkpt>
      <trkpt lat="43.61766" lon="6.50957">
        <ele>590</ele>
        <time>2013-10-02T13:58:37Z</time>
      </trkpt>
      <trkpt lat="43.61758" lon="6.50955">
        <ele>589</ele>
        <time>2013-10-02T13:58:44Z</time>
      </trkpt>
      <trkpt lat="43.6175" lon="6.5095">
        <ele>589</ele>
        <time>2013-10-02T13:58:50Z</time>
      </trkpt>
      <trkpt lat="43.61743" lon="6.50946">
        <ele>589</ele>
        <time>2013-10-02T13:58:56Z</time>
      </trkpt>
      <trkpt lat="43.61734" lon="6.50941">
        <ele>588</ele>
        <time>2013-10-02T13:59:03Z</time>
      </trkpt>
      <trkpt lat="43.61733" lon="6.50941">
        <ele>588</ele>
        <time>2013-10-02T13:59:04Z</time>
      </trkpt>
      <trkpt lat="43.6172" lon="6.5093">
        <ele>588</ele>
        <time>2013-10-02T13:59:19Z</time>
      </trkpt>
      <trkpt lat="43.61713" lon="6.50924">
        <ele>588</ele>
        <time>2013-10-02T13:59:26Z</time>
      </trkpt>
      <trkpt lat="43.61707" lon="6.50914">
        <ele>588</ele>
        <time>2013-10-02T13:59:36Z</time>
      </trkpt>
      <trkpt lat="43.61701" lon="6.50907">
        <ele>587</ele>
        <time>2013-10-02T13:59:46Z</time>
      </trkpt>
      <trkpt lat="43.61693" lon="6.50902">
        <ele>587</ele>
        <time>2013-10-02T13:59:55Z</time>
      </trkpt>
      <trkpt lat="43.61686" lon="6.50896">
        <ele>590</ele>
        <time>2013-10-02T14:00:04Z</time>
      </trkpt>
      <trkpt lat="43.61685" lon="6.50895">
        <ele>589</ele>
        <time>2013-10-02T14:00:05Z</time>
      </trkpt>
      <trkpt lat="43.61672" lon="6.50882">
        <ele>588</ele>
        <time>2013-10-02T14:00:19Z</time>
      </trkpt>
      <trkpt lat="43.61666" lon="6.50875">
        <ele>588</ele>
        <time>2013-10-02T14:00:27Z</time>
      </trkpt>
      <trkpt lat="43.61659" lon="6.50868">
        <ele>587</ele>
        <time>2013-10-02T14:00:34Z</time>
      </trkpt>
      <trkpt lat="43.61652" lon="6.50862">
        <ele>588</ele>
        <time>2013-10-02T14:00:39Z</time>
      </trkpt>
      <trkpt lat="43.61645" lon="6.50855">
        <ele>585</ele>
        <time>2013-10-02T14:00:47Z</time>
      </trkpt>
      <trkpt lat="43.61638" lon="6.50847">
        <ele>586</ele>
        <time>2013-10-02T14:00:56Z</time>
      </trkpt>
      <trkpt lat="43.6163" lon="6.50841">
        <ele>584</ele>
        <time>2013-10-02T14:01:05Z</time>
      </trkpt>
      <trkpt lat="43.6163" lon="6.50841">
        <ele>585</ele>
        <time>2013-10-02T14:01:06Z</time>
      </trkpt>
      <trkpt lat="43.61613" lon="6.50836">
        <ele>584</ele>
        <time>2013-10-02T14:01:29Z</time>
      </trkpt>
      <trkpt lat="43.61605" lon="6.50834">
        <ele>583</ele>
        <time>2013-10-02T14:01:38Z</time>
      </trkpt>
      <trkpt lat="43.61597" lon="6.50836">
        <ele>583</ele>
        <time>2013-10-02T14:01:45Z</time>
      </trkpt>
      <trkpt lat="43.61589" lon="6.50834">
        <ele>583</ele>
        <time>2013-10-02T14:01:52Z</time>
      </trkpt>
      <trkpt lat="43.6158" lon="6.50832">
        <ele>583</ele>
        <time>2013-10-02T14:01:59Z</time>
      </trkpt>
      <trkpt lat="43.61573" lon="6.5083">
        <ele>582</ele>
        <time>2013-10-02T14:02:07Z</time>
      </trkpt>
      <trkpt lat="43.61571" lon="6.5083">
        <ele>583</ele>
        <time>2013-10-02T14:02:08Z</time>
      </trkpt>
      <trkpt lat="43.61557" lon="6.5082">
        <ele>583</ele>
        <time>2013-10-02T14:02:27Z</time>
      </trkpt>
      <trkpt lat="43.61552" lon="6.50813">
        <ele>583</ele>
        <time>2013-10-02T14:02:35Z</time>
      </trkpt>
      <trkpt lat="43.61546" lon="6.50804">
        <ele>583</ele>
        <time>2013-10-02T14:02:42Z</time>
      </trkpt>
      <trkpt lat="43.61542" lon="6.50794">
        <ele>584</ele>
        <time>2013-10-02T14:02:49Z</time>
      </trkpt>
      <trkpt lat="43.6154" lon="6.50782">
        <ele>582</ele>
        <time>2013-10-02T14:02:59Z</time>
      </trkpt>
      <trkpt lat="43.6154" lon="6.5077">
        <ele>581</ele>
        <time>2013-10-02T14:03:07Z</time>
      </trkpt>
      <trkpt lat="43.6154" lon="6.50759">
        <ele>580</ele>
        <time>2013-10-02T14:03:17Z</time>
      </trkpt>
      <trkpt lat="43.61539" lon="6.50757">
        <ele>581</ele>
        <time>2013-10-02T14:03:18Z</time>
      </trkpt>
      <trkpt lat="43.61548" lon="6.5074">
        <ele>579</ele>
        <time>2013-10-02T14:03:30Z</time>
      </trkpt>
      <trkpt lat="43.61552" lon="6.50732">
        <ele>580</ele>
        <time>2013-10-02T14:03:33Z</time>
      </trkpt>
      <trkpt lat="43.61556" lon="6.50723">
        <ele>580</ele>
        <time>2013-10-02T14:03:37Z</time>
      </trkpt>
      <trkpt lat="43.61563" lon="6.50716">
        <ele>580</ele>
        <time>2013-10-02T14:03:43Z</time>
      </trkpt>
      <trkpt lat="43.61565" lon="6.50705">
        <ele>580</ele>
        <time>2013-10-02T14:03:51Z</time>
      </trkpt>
      <trkpt lat="43.61562" lon="6.50695">
        <ele>581</ele>
        <time>2013-10-02T14:03:59Z</time>
      </trkpt>
      <trkpt lat="43.61558" lon="6.50685">
        <ele>582</ele>
        <time>2013-10-02T14:04:07Z</time>
      </trkpt>
      <trkpt lat="43.61555" lon="6.50673">
        <ele>581</ele>
        <time>2013-10-02T14:04:14Z</time>
      </trkpt>
      <trkpt lat="43.61553" lon="6.50662">
        <ele>579</ele>
        <time>2013-10-02T14:04:20Z</time>
      </trkpt>
      <trkpt lat="43.61552" lon="6.5066">
        <ele>580</ele>
        <time>2013-10-02T14:04:21Z</time>
      </trkpt>
      <trkpt lat="43.6155" lon="6.5064">
        <ele>579</ele>
        <time>2013-10-02T14:04:34Z</time>
      </trkpt>
      <trkpt lat="43.61552" lon="6.50628">
        <ele>578</ele>
        <time>2013-10-02T14:04:42Z</time>
      </trkpt>
      <trkpt lat="43.61556" lon="6.50618">
        <ele>577</ele>
        <time>2013-10-02T14:04:49Z</time>
      </trkpt>
      <trkpt lat="43.61556" lon="6.50606">
        <ele>577</ele>
        <time>2013-10-02T14:05:00Z</time>
      </trkpt>
      <trkpt lat="43.61558" lon="6.50595">
        <ele>577</ele>
        <time>2013-10-02T14:05:08Z</time>
      </trkpt>
      <trkpt lat="43.61561" lon="6.50584">
        <ele>577</ele>
        <time>2013-10-02T14:05:15Z</time>
      </trkpt>
      <trkpt lat="43.61562" lon="6.50573">
        <ele>576</ele>
        <time>2013-10-02T14:05:22Z</time>
      </trkpt>
      <trkpt lat="43.61562" lon="6.50571">
        <ele>576</ele>
        <time>2013-10-02T14:05:23Z</time>
      </trkpt>
      <trkpt lat="43.61569" lon="6.50553">
        <ele>577</ele>
        <time>2013-10-02T14:05:45Z</time>
      </trkpt>
      <trkpt lat="43.61571" lon="6.50541">
        <ele>578</ele>
        <time>2013-10-02T14:06:03Z</time>
      </trkpt>
      <trkpt lat="43.61572" lon="6.5053">
        <ele>580</ele>
        <time>2013-10-02T14:06:15Z</time>
      </trkpt>
      <trkpt lat="43.61572" lon="6.50517">
        <ele>582</ele>
        <time>2013-10-02T14:06:26Z</time>
      </trkpt>
      <trkpt lat="43.61572" lon="6.50517">
        <ele>582</ele>
        <time>2013-10-02T14:06:27Z</time>
      </trkpt>
      <trkpt lat="43.61571" lon="6.50495">
        <ele>587</ele>
        <time>2013-10-02T14:06:50Z</time>
      </trkpt>
      <trkpt lat="43.61567" lon="6.50484">
        <ele>587</ele>
        <time>2013-10-02T14:07:00Z</time>
      </trkpt>
      <trkpt lat="43.61566" lon="6.50474">
        <ele>588</ele>
        <time>2013-10-02T14:07:11Z</time>
      </trkpt>
      <trkpt lat="43.61564" lon="6.50462">
        <ele>591</ele>
        <time>2013-10-02T14:07:22Z</time>
      </trkpt>
      <trkpt lat="43.61562" lon="6.50451">
        <ele>592</ele>
        <time>2013-10-02T14:07:32Z</time>
      </trkpt>
      <trkpt lat="43.61562" lon="6.50449">
        <ele>592</ele>
        <time>2013-10-02T14:07:33Z</time>
      </trkpt>
      <trkpt lat="43.61563" lon="6.50427">
        <ele>595</ele>
        <time>2013-10-02T14:07:51Z</time>
      </trkpt>
      <trkpt lat="43.61564" lon="6.50415">
        <ele>597</ele>
        <time>2013-10-02T14:08:00Z</time>
      </trkpt>
      <trkpt lat="43.61563" lon="6.50405">
        <ele>597</ele>
        <time>2013-10-02T14:08:08Z</time>
      </trkpt>
      <trkpt lat="43.61562" lon="6.50393">
        <ele>596</ele>
        <time>2013-10-02T14:08:16Z</time>
      </trkpt>
      <trkpt lat="43.61561" lon="6.50382">
        <ele>598</ele>
        <time>2013-10-02T14:08:27Z</time>
      </trkpt>
      <trkpt lat="43.61557" lon="6.50373">
        <ele>597</ele>
        <time>2013-10-02T14:08:33Z</time>
      </trkpt>
      <trkpt lat="43.61556" lon="6.50371">
        <ele>597</ele>
        <time>2013-10-02T14:08:34Z</time>
      </trkpt>
      <trkpt lat="43.6155" lon="6.50351">
        <ele>597</ele>
        <time>2013-10-02T14:08:48Z</time>
      </trkpt>
      <trkpt lat="43.61546" lon="6.50341">
        <ele>597</ele>
        <time>2013-10-02T14:08:56Z</time>
      </trkpt>
      <trkpt lat="43.61542" lon="6.50331">
        <ele>596</ele>
        <time>2013-10-02T14:09:03Z</time>
      </trkpt>
      <trkpt lat="43.61538" lon="6.50322">
        <ele>595</ele>
        <time>2013-10-02T14:09:08Z</time>
      </trkpt>
      <trkpt lat="43.61535" lon="6.50313">
        <ele>594</ele>
        <time>2013-10-02T14:09:15Z</time>
      </trkpt>
      <trkpt lat="43.61529" lon="6.50304">
        <ele>593</ele>
        <time>2013-10-02T14:09:22Z</time>
      </trkpt>
      <trkpt lat="43.61524" lon="6.50294">
        <ele>591</ele>
        <time>2013-10-02T14:09:32Z</time>
      </trkpt>
      <trkpt lat="43.61524" lon="6.50282">
        <ele>593</ele>
        <time>2013-10-02T14:09:40Z</time>
      </trkpt>
      <trkpt lat="43.61524" lon="6.5028">
        <ele>593</ele>
        <time>2013-10-02T14:09:41Z</time>
      </trkpt>
      <trkpt lat="43.61526" lon="6.50262">
        <ele>594</ele>
        <time>2013-10-02T14:09:51Z</time>
      </trkpt>
      <trkpt lat="43.61528" lon="6.5025">
        <ele>595</ele>
        <time>2013-10-02T14:10:00Z</time>
      </trkpt>
      <trkpt lat="43.61525" lon="6.50239">
        <ele>594</ele>
        <time>2013-10-02T14:10:07Z</time>
      </trkpt>
      <trkpt lat="43.61526" lon="6.50228">
        <ele>592</ele>
        <time>2013-10-02T14:10:15Z</time>
      </trkpt>
      <trkpt lat="43.61527" lon="6.50216">
        <ele>592</ele>
        <time>2013-10-02T14:10:26Z</time>
      </trkpt>
      <trkpt lat="43.61532" lon="6.50208">
        <ele>592</ele>
        <time>2013-10-02T14:10:31Z</time>
      </trkpt>
      <trkpt lat="43.61534" lon="6.50196">
        <ele>591</ele>
        <time>2013-10-02T14:10:37Z</time>
      </trkpt>
      <trkpt lat="43.61536" lon="6.50184">
        <ele>590</ele>
        <time>2013-10-02T14:10:45Z</time>
      </trkpt>
      <trkpt lat="43.61537" lon="6.50182">
        <ele>590</ele>
        <time>2013-10-02T14:10:46Z</time>
      </trkpt>
      <trkpt lat="43.61542" lon="6.50162">
        <ele>590</ele>
        <time>2013-10-02T14:11:02Z</time>
      </trkpt>
      <trkpt lat="43.61548" lon="6.50154">
        <ele>589</ele>
        <time>2013-10-02T14:11:07Z</time>
      </trkpt>
      <trkpt lat="43.61554" lon="6.50145">
        <ele>588</ele>
        <time>2013-10-02T14:11:14Z</time>
      </trkpt>
      <trkpt lat="43.6156" lon="6.50138">
        <ele>588</ele>
        <time>2013-10-02T14:11:21Z</time>
      </trkpt>
      <trkpt lat="43.61564" lon="6.50129">
        <ele>587</ele>
        <time>2013-10-02T14:11:28Z</time>
      </trkpt>
      <trkpt lat="43.61568" lon="6.50118">
        <ele>586</ele>
        <time>2013-10-02T14:11:35Z</time>
      </trkpt>
      <trkpt lat="43.61575" lon="6.50111">
        <ele>586</ele>
        <time>2013-10-02T14:11:43Z</time>
      </trkpt>
      <trkpt lat="43.61582" lon="6.50105">
        <ele>584</ele>
        <time>2013-10-02T14:11:53Z</time>
      </trkpt>
      <trkpt lat="43.61583" lon="6.50105">
        <ele>584</ele>
        <time>2013-10-02T14:11:54Z</time>
      </trkpt>
      <trkpt lat="43.61595" lon="6.50093">
        <ele>584</ele>
        <time>2013-10-02T14:12:04Z</time>
      </trkpt>
      <trkpt lat="43.61601" lon="6.50085">
        <ele>582</ele>
        <time>2013-10-02T14:12:11Z</time>
      </trkpt>
      <trkpt lat="43.61609" lon="6.50079">
        <ele>582</ele>
        <time>2013-10-02T14:12:20Z</time>
      </trkpt>
      <trkpt lat="43.61614" lon="6.5007">
        <ele>581</ele>
        <time>2013-10-02T14:12:25Z</time>
      </trkpt>
      <trkpt lat="43.61619" lon="6.50061">
        <ele>580</ele>
        <time>2013-10-02T14:12:38Z</time>
      </trkpt>
      <trkpt lat="43.61621" lon="6.50049">
        <ele>579</ele>
        <time>2013-10-02T14:12:47Z</time>
      </trkpt>
      <trkpt lat="43.61622" lon="6.50038">
        <ele>578</ele>
        <time>2013-10-02T14:12:56Z</time>
      </trkpt>
      <trkpt lat="43.61623" lon="6.50037">
        <ele>577</ele>
        <time>2013-10-02T14:12:57Z</time>
      </trkpt>
      <trkpt lat="43.61623" lon="6.50018">
        <ele>577</ele>
        <time>2013-10-02T14:13:10Z</time>
      </trkpt>
      <trkpt lat="43.61624" lon="6.50006">
        <ele>578</ele>
        <time>2013-10-02T14:13:18Z</time>
      </trkpt>
      <trkpt lat="43.61619" lon="6.49996">
        <ele>577</ele>
        <time>2013-10-02T14:13:27Z</time>
      </trkpt>
      <trkpt lat="43.61614" lon="6.49989">
        <ele>579</ele>
        <time>2013-10-02T14:13:36Z</time>
      </trkpt>
      <trkpt lat="43.61608" lon="6.4998">
        <ele>580</ele>
        <time>2013-10-02T14:13:43Z</time>
      </trkpt>
      <trkpt lat="43.61602" lon="6.4997">
        <ele>582</ele>
        <time>2013-10-02T14:13:57Z</time>
      </trkpt>
      <trkpt lat="43.61602" lon="6.49969">
        <ele>581</ele>
        <time>2013-10-02T14:13:58Z</time>
      </trkpt>
      <trkpt lat="43.61598" lon="6.49948">
        <ele>582</ele>
        <time>2013-10-02T14:14:17Z</time>
      </trkpt>
      <trkpt lat="43.61596" lon="6.49937">
        <ele>582</ele>
        <time>2013-10-02T14:14:25Z</time>
      </trkpt>
      <trkpt lat="43.61594" lon="6.49926">
        <ele>583</ele>
        <time>2013-10-02T14:14:33Z</time>
      </trkpt>
      <trkpt lat="43.61592" lon="6.49914">
        <ele>586</ele>
        <time>2013-10-02T14:14:45Z</time>
      </trkpt>
      <trkpt lat="43.61594" lon="6.49902">
        <ele>586</ele>
        <time>2013-10-02T14:14:56Z</time>
      </trkpt>
      <trkpt lat="43.61596" lon="6.49891">
        <ele>587</ele>
        <time>2013-10-02T14:15:05Z</time>
      </trkpt>
      <trkpt lat="43.61596" lon="6.49889">
        <ele>587</ele>
        <time>2013-10-02T14:15:06Z</time>
      </trkpt>
      <trkpt lat="43.61594" lon="6.49868">
        <ele>586</ele>
        <time>2013-10-02T14:15:19Z</time>
      </trkpt>
      <trkpt lat="43.61596" lon="6.49856">
        <ele>588</ele>
        <time>2013-10-02T14:15:27Z</time>
      </trkpt>
      <trkpt lat="43.61601" lon="6.49846">
        <ele>587</ele>
        <time>2013-10-02T14:15:34Z</time>
      </trkpt>
      <trkpt lat="43.61603" lon="6.49835">
        <ele>586</ele>
        <time>2013-10-02T14:15:43Z</time>
      </trkpt>
      <trkpt lat="43.61608" lon="6.49827">
        <ele>585</ele>
        <time>2013-10-02T14:15:48Z</time>
      </trkpt>
      <trkpt lat="43.61612" lon="6.49816">
        <ele>585</ele>
        <time>2013-10-02T14:15:58Z</time>
      </trkpt>
      <trkpt lat="43.61613" lon="6.49804">
        <ele>582</ele>
        <time>2013-10-02T14:16:10Z</time>
      </trkpt>
      <trkpt lat="43.61613" lon="6.49803">
        <ele>582</ele>
        <time>2013-10-02T14:16:11Z</time>
      </trkpt>
      <trkpt lat="43.61615" lon="6.49782">
        <ele>582</ele>
        <time>2013-10-02T14:16:27Z</time>
      </trkpt>
      <trkpt lat="43.61622" lon="6.49775">
        <ele>581</ele>
        <time>2013-10-02T14:16:32Z</time>
      </trkpt>
      <trkpt lat="43.61628" lon="6.49767">
        <ele>581</ele>
        <time>2013-10-02T14:16:39Z</time>
      </trkpt>
      <trkpt lat="43.61635" lon="6.49758">
        <ele>579</ele>
        <time>2013-10-02T14:16:48Z</time>
      </trkpt>
      <trkpt lat="43.61639" lon="6.4975">
        <ele>578</ele>
        <time>2013-10-02T14:16:55Z</time>
      </trkpt>
      <trkpt lat="43.61644" lon="6.49742">
        <ele>577</ele>
        <time>2013-10-02T14:16:59Z</time>
      </trkpt>
      <trkpt lat="43.61647" lon="6.49731">
        <ele>577</ele>
        <time>2013-10-02T14:17:08Z</time>
      </trkpt>
      <trkpt lat="43.61651" lon="6.49721">
        <ele>575</ele>
        <time>2013-10-02T14:17:26Z</time>
      </trkpt>
      <trkpt lat="43.61651" lon="6.4972">
        <ele>576</ele>
        <time>2013-10-02T14:17:27Z</time>
      </trkpt>
      <trkpt lat="43.61653" lon="6.49697">
        <ele>572</ele>
        <time>2013-10-02T14:18:00Z</time>
      </trkpt>
      <trkpt lat="43.61654" lon="6.49685">
        <ele>571</ele>
        <time>2013-10-02T14:18:09Z</time>
      </trkpt>
      <trkpt lat="43.61657" lon="6.49674">
        <ele>570</ele>
        <time>2013-10-02T14:18:19Z</time>
      </trkpt>
      <trkpt lat="43.61661" lon="6.49665">
        <ele>572</ele>
        <time>2013-10-02T14:18:30Z</time>
      </trkpt>
      <trkpt lat="43.61663" lon="6.49664">
        <ele>572</ele>
        <time>2013-10-02T14:18:31Z</time>
      </trkpt>
      <trkpt lat="43.61675" lon="6.49652">
        <ele>573</ele>
        <time>2013-10-02T14:18:43Z</time>
      </trkpt>
      <trkpt lat="43.6168" lon="6.49643">
        <ele>575</ele>
        <time>2013-10-02T14:18:53Z</time>
      </trkpt>
      <trkpt lat="43.61684" lon="6.49632">
        <ele>575</ele>
        <time>2013-10-02T14:19:02Z</time>
      </trkpt>
      <trkpt lat="43.61688" lon="6.49622">
        <ele>576</ele>
        <time>2013-10-02T14:19:12Z</time>
      </trkpt>
      <trkpt lat="43.61692" lon="6.49612">
        <ele>574</ele>
        <time>2013-10-02T14:19:24Z</time>
      </trkpt>
      <trkpt lat="43.61696" lon="6.49602">
        <ele>572</ele>
        <time>2013-10-02T14:19:33Z</time>
      </trkpt>
      <trkpt lat="43.61697" lon="6.49599">
        <ele>572</ele>
        <time>2013-10-02T14:19:34Z</time>
      </trkpt>
      <trkpt lat="43.617" lon="6.4958">
        <ele>571</ele>
        <time>2013-10-02T14:19:51Z</time>
      </trkpt>
      <trkpt lat="43.61701" lon="6.49568">
        <ele>570</ele>
        <time>2013-10-02T14:19:59Z</time>
      </trkpt>
      <trkpt lat="43.61702" lon="6.49557">
        <ele>569</ele>
        <time>2013-10-02T14:20:08Z</time>
      </trkpt>
      <trkpt lat="43.61702" lon="6.49545">
        <ele>568</ele>
        <time>2013-10-02T14:20:17Z</time>
      </trkpt>
      <trkpt lat="43.61702" lon="6.49534">
        <ele>569</ele>
        <time>2013-10-02T14:20:25Z</time>
      </trkpt>
      <trkpt lat="43.617" lon="6.49522">
        <ele>570</ele>
        <time>2013-10-02T14:20:31Z</time>
      </trkpt>
      <trkpt lat="43.61699" lon="6.49511">
        <ele>571</ele>
        <time>2013-10-02T14:20:40Z</time>
      </trkpt>
      <trkpt lat="43.61699" lon="6.49509">
        <ele>571</ele>
        <time>2013-10-02T14:20:41Z</time>
      </trkpt>
      <trkpt lat="43.61697" lon="6.49488">
        <ele>573</ele>
        <time>2013-10-02T14:20:58Z</time>
      </trkpt>
      <trkpt lat="43.61697" lon="6.49476">
        <ele>574</ele>
        <time>2013-10-02T14:21:07Z</time>
      </trkpt>
      <trkpt lat="43.61694" lon="6.49465">
        <ele>574</ele>
        <time>2013-10-02T14:21:17Z</time>
      </trkpt>
      <trkpt lat="43.61694" lon="6.49454">
        <ele>577</ele>
        <time>2013-10-02T14:21:27Z</time>
      </trkpt>
      <trkpt lat="43.61692" lon="6.49442">
        <ele>577</ele>
        <time>2013-10-02T14:21:40Z</time>
      </trkpt>
      <trkpt lat="43.61696" lon="6.49432">
        <ele>577</ele>
        <time>2013-10-02T14:21:47Z</time>
      </trkpt>
      <trkpt lat="43.61698" lon="6.49428">
        <ele>577</ele>
        <time>2013-10-02T14:21:48Z</time>
      </trkpt>
      <trkpt lat="43.61707" lon="6.49414">
        <ele>578</ele>
        <time>2013-10-02T14:21:58Z</time>
      </trkpt>
      <trkpt lat="43.6171" lon="6.49403">
        <ele>578</ele>
        <time>2013-10-02T14:22:06Z</time>
      </trkpt>
      <trkpt lat="43.61709" lon="6.49392">
        <ele>580</ele>
        <time>2013-10-02T14:22:16Z</time>
      </trkpt>
      <trkpt lat="43.61705" lon="6.49381">
        <ele>580</ele>
        <time>2013-10-02T14:22:25Z</time>
      </trkpt>
      <trkpt lat="43.617" lon="6.49372">
        <ele>580</ele>
        <time>2013-10-02T14:22:32Z</time>
      </trkpt>
      <trkpt lat="43.61699" lon="6.4936">
        <ele>583</ele>
        <time>2013-10-02T14:22:48Z</time>
      </trkpt>
      <trkpt lat="43.617" lon="6.49359">
        <ele>582</ele>
        <time>2013-10-02T14:22:49Z</time>
      </trkpt>
      <trkpt lat="43.61703" lon="6.49338">
        <ele>584</ele>
        <time>2013-10-02T14:23:06Z</time>
      </trkpt>
      <trkpt lat="43.61708" lon="6.49328">
        <ele>585</ele>
        <time>2013-10-02T14:23:18Z</time>
      </trkpt>
      <trkpt lat="43.61711" lon="6.49317">
        <ele>586</ele>
        <time>2013-10-02T14:23:30Z</time>
      </trkpt>
      <trkpt lat="43.61711" lon="6.49306">
        <ele>585</ele>
        <time>2013-10-02T14:23:40Z</time>
      </trkpt>
      <trkpt lat="43.6171" lon="6.49293">
        <ele>585</ele>
        <time>2013-10-02T14:23:49Z</time>
      </trkpt>
      <trkpt lat="43.6171" lon="6.49291">
        <ele>586</ele>
        <time>2013-10-02T14:23:50Z</time>
      </trkpt>
      <trkpt lat="43.61717" lon="6.49272">
        <ele>586</ele>
        <time>2013-10-02T14:24:02Z</time>
      </trkpt>
      <trkpt lat="43.61722" lon="6.49264">
        <ele>585</ele>
        <time>2013-10-02T14:24:08Z</time>
      </trkpt>
      <trkpt lat="43.61727" lon="6.49256">
        <ele>585</ele>
        <time>2013-10-02T14:24:13Z</time>
      </trkpt>
      <trkpt lat="43.61731" lon="6.49246">
        <ele>584</ele>
        <time>2013-10-02T14:24:20Z</time>
      </trkpt>
      <trkpt lat="43.61735" lon="6.49235">
        <ele>582</ele>
        <time>2013-10-02T14:24:29Z</time>
      </trkpt>
      <trkpt lat="43.61736" lon="6.49224">
        <ele>583</ele>
        <time>2013-10-02T14:24:37Z</time>
      </trkpt>
      <trkpt lat="43.61735" lon="6.49212">
        <ele>583</ele>
        <time>2013-10-02T14:24:48Z</time>
      </trkpt>
      <trkpt lat="43.61732" lon="6.492">
        <ele>581</ele>
        <time>2013-10-02T14:24:59Z</time>
      </trkpt>
      <trkpt lat="43.61732" lon="6.49199">
        <ele>581</ele>
        <time>2013-10-02T14:25:00Z</time>
      </trkpt>
      <trkpt lat="43.61731" lon="6.49178">
        <ele>577</ele>
        <time>2013-10-02T14:25:21Z</time>
      </trkpt>
      <trkpt lat="43.61733" lon="6.49167">
        <ele>575</ele>
        <time>2013-10-02T14:25:31Z</time>
      </trkpt>
      <trkpt lat="43.61733" lon="6.49154">
        <ele>574</ele>
        <time>2013-10-02T14:25:43Z</time>
      </trkpt>
      <trkpt lat="43.6173" lon="6.49143">
        <ele>571</ele>
        <time>2013-10-02T14:25:52Z</time>
      </trkpt>
      <trkpt lat="43.61728" lon="6.49131">
        <ele>569</ele>
        <time>2013-10-02T14:26:08Z</time>
      </trkpt>
      <trkpt lat="43.61728" lon="6.49131">
        <ele>569</ele>
        <time>2013-10-02T14:26:09Z</time>
      </trkpt>
      <trkpt lat="43.61736" lon="6.49111">
        <ele>563</ele>
        <time>2013-10-02T14:26:36Z</time>
      </trkpt>
      <trkpt lat="43.61736" lon="6.49098">
        <ele>563</ele>
        <time>2013-10-02T14:26:44Z</time>
      </trkpt>
      <trkpt lat="43.61737" lon="6.49087">
        <ele>559</ele>
        <time>2013-10-02T14:26:54Z</time>
      </trkpt>
      <trkpt lat="43.61739" lon="6.49076">
        <ele>557</ele>
        <time>2013-10-02T14:27:05Z</time>
      </trkpt>
      <trkpt lat="43.61743" lon="6.49065">
        <ele>556</ele>
        <time>2013-10-02T14:27:15Z</time>
      </trkpt>
      <trkpt lat="43.61743" lon="6.49064">
        <ele>556</ele>
        <time>2013-10-02T14:27:16Z</time>
      </trkpt>
      <trkpt lat="43.61746" lon="6.49043">
        <ele>552</ele>
        <time>2013-10-02T14:27:32Z</time>
      </trkpt>
      <trkpt lat="43.61746" lon="6.49032">
        <ele>551</ele>
        <time>2013-10-02T14:27:39Z</time>
      </trkpt>
      <trkpt lat="43.61751" lon="6.49021">
        <ele>552</ele>
        <time>2013-10-02T14:27:47Z</time>
      </trkpt>
      <trkpt lat="43.61753" lon="6.4901">
        <ele>551</ele>
        <time>2013-10-02T14:27:55Z</time>
      </trkpt>
      <trkpt lat="43.61752" lon="6.48998">
        <ele>551</ele>
        <time>2013-10-02T14:28:04Z</time>
      </trkpt>
      <trkpt lat="43.61746" lon="6.4899">
        <ele>550</ele>
        <time>2013-10-02T14:28:21Z</time>
      </trkpt>
      <trkpt lat="43.61745" lon="6.48989">
        <ele>550</ele>
        <time>2013-10-02T14:28:22Z</time>
      </trkpt>
      <trkpt lat="43.61729" lon="6.48986">
        <ele>548</ele>
        <time>2013-10-02T14:28:44Z</time>
      </trkpt>
      <trkpt lat="43.6172" lon="6.48984">
        <ele>548</ele>
        <time>2013-10-02T14:28:50Z</time>
      </trkpt>
      <trkpt lat="43.61712" lon="6.48982">
        <ele>548</ele>
        <time>2013-10-02T14:28:56Z</time>
      </trkpt>
      <trkpt lat="43.61704" lon="6.48981">
        <ele>546</ele>
        <time>2013-10-02T14:29:07Z</time>
      </trkpt>
      <trkpt lat="43.61695" lon="6.48979">
        <ele>546</ele>
        <time>2013-10-02T14:29:14Z</time>
      </trkpt>
      <trkpt lat="43.61687" lon="6.48976">
        <ele>546</ele>
        <time>2013-10-02T14:29:20Z</time>
      </trkpt>
      <trkpt lat="43.61679" lon="6.48975">
        <ele>544</ele>
        <time>2013-10-02T14:29:29Z</time>
      </trkpt>
      <trkpt lat="43.61677" lon="6.48975">
        <ele>545</ele>
        <time>2013-10-02T14:29:30Z</time>
      </trkpt>
      <trkpt lat="43.61662" lon="6.48969">
        <ele>543</ele>
        <time>2013-10-02T14:29:44Z</time>
      </trkpt>
      <trkpt lat="43.61654" lon="6.48965">
        <ele>543</ele>
        <time>2013-10-02T14:29:56Z</time>
      </trkpt>
      <trkpt lat="43.61646" lon="6.48962">
        <ele>542</ele>
        <time>2013-10-02T14:30:03Z</time>
      </trkpt>
      <trkpt lat="43.61638" lon="6.48958">
        <ele>541</ele>
        <time>2013-10-02T14:30:13Z</time>
      </trkpt>
      <trkpt lat="43.6163" lon="6.48954">
        <ele>540</ele>
        <time>2013-10-02T14:30:21Z</time>
      </trkpt>
      <trkpt lat="43.61622" lon="6.48951">
        <ele>540</ele>
        <time>2013-10-02T14:30:28Z</time>
      </trkpt>
      <trkpt lat="43.61614" lon="6.4895">
        <ele>540</ele>
        <time>2013-10-02T14:30:36Z</time>
      </trkpt>
      <trkpt lat="43.61613" lon="6.4895">
        <ele>540</ele>
        <time>2013-10-02T14:30:37Z</time>
      </trkpt>
      <trkpt lat="43.61597" lon="6.48945">
        <ele>540</ele>
        <time>2013-10-02T14:30:55Z</time>
      </trkpt>
      <trkpt lat="43.6159" lon="6.48941">
        <ele>539</ele>
        <time>2013-10-02T14:31:02Z</time>
      </trkpt>
      <trkpt lat="43.61582" lon="6.48939">
        <ele>538</ele>
        <time>2013-10-02T14:31:09Z</time>
      </trkpt>
      <trkpt lat="43.61573" lon="6.48936">
        <ele>538</ele>
        <time>2013-10-02T14:31:20Z</time>
      </trkpt>
      <trkpt lat="43.61565" lon="6.48935">
        <ele>534</ele>
        <time>2013-10-02T14:31:29Z</time>
      </trkpt>
      <trkpt lat="43.61556" lon="6.48933">
        <ele>533</ele>
        <time>2013-10-02T14:31:36Z</time>
      </trkpt>
      <trkpt lat="43.61548" lon="6.48932">
        <ele>533</ele>
        <time>2013-10-02T14:31:42Z</time>
      </trkpt>
      <trkpt lat="43.61547" lon="6.48931">
        <ele>533</ele>
        <time>2013-10-02T14:31:43Z</time>
      </trkpt>
      <trkpt lat="43.61532" lon="6.48922">
        <ele>529</ele>
        <time>2013-10-02T14:32:01Z</time>
      </trkpt>
      <trkpt lat="43.61524" lon="6.48918">
        <ele>527</ele>
        <time>2013-10-02T14:32:14Z</time>
      </trkpt>
      <trkpt lat="43.61518" lon="6.48912">
        <ele>525</ele>
        <time>2013-10-02T14:32:23Z</time>
      </trkpt>
      <trkpt lat="43.6151" lon="6.48905">
        <ele>523</ele>
        <time>2013-10-02T14:32:34Z</time>
      </trkpt>
      <trkpt lat="43.61503" lon="6.489">
        <ele>522</ele>
        <time>2013-10-02T14:32:46Z</time>
      </trkpt>
      <trkpt lat="43.61502" lon="6.489">
        <ele>522</ele>
        <time>2013-10-02T14:32:47Z</time>
      </trkpt>
      <trkpt lat="43.6149" lon="6.48886">
        <ele>519</ele>
        <time>2013-10-02T14:33:06Z</time>
      </trkpt>
      <trkpt lat="43.61483" lon="6.48881">
        <ele>518</ele>
        <time>2013-10-02T14:33:15Z</time>
      </trkpt>
      <trkpt lat="43.61476" lon="6.48875">
        <ele>518</ele>
        <time>2013-10-02T14:33:21Z</time>
      </trkpt>
      <trkpt lat="43.61468" lon="6.48871">
        <ele>516</ele>
        <time>2013-10-02T14:33:30Z</time>
      </trkpt>
      <trkpt lat="43.61461" lon="6.48863">
        <ele>516</ele>
        <time>2013-10-02T14:33:41Z</time>
      </trkpt>
      <trkpt lat="43.61457" lon="6.48853">
        <ele>512</ele>
        <time>2013-10-02T14:33:55Z</time>
      </trkpt>
      <trkpt lat="43.61457" lon="6.48852">
        <ele>512</ele>
        <time>2013-10-02T14:33:56Z</time>
      </trkpt>
      <trkpt lat="43.61452" lon="6.48831">
        <ele>508</ele>
        <time>2013-10-02T14:34:17Z</time>
      </trkpt>
      <trkpt lat="43.61446" lon="6.48821">
        <ele>506</ele>
        <time>2013-10-02T14:34:33Z</time>
      </trkpt>
      <trkpt lat="43.61439" lon="6.48814">
        <ele>505</ele>
        <time>2013-10-02T14:34:48Z</time>
      </trkpt>
      <trkpt lat="43.61431" lon="6.48811">
        <ele>502</ele>
        <time>2013-10-02T14:34:57Z</time>
      </trkpt>
      <trkpt lat="43.6143" lon="6.48811">
        <ele>502</ele>
        <time>2013-10-02T14:34:58Z</time>
      </trkpt>
      <trkpt lat="43.61417" lon="6.48798">
        <ele>500</ele>
        <time>2013-10-02T14:35:16Z</time>
      </trkpt>
      <trkpt lat="43.6141" lon="6.4879">
        <ele>498</ele>
        <time>2013-10-02T14:35:34Z</time>
      </trkpt>
      <trkpt lat="43.61404" lon="6.48782">
        <ele>497</ele>
        <time>2013-10-02T14:36:35Z</time>
      </trkpt>
      <trkpt lat="43.61403" lon="6.48782">
        <ele>497</ele>
        <time>2013-10-02T14:36:36Z</time>
      </trkpt>
      <trkpt lat="43.61388" lon="6.4878">
        <ele>490</ele>
        <time>2013-10-02T14:37:14Z</time>
      </trkpt>
      <trkpt lat="43.6138" lon="6.48787">
        <ele>488</ele>
        <time>2013-10-02T14:38:05Z</time>
      </trkpt>
      <trkpt lat="43.6138" lon="6.48787">
        <ele>488</ele>
        <time>2013-10-02T14:38:06Z</time>
      </trkpt>
      <trkpt lat="43.61371" lon="6.48789">
        <ele>488</ele>
        <time>2013-10-02T14:39:26Z</time>
      </trkpt>
      <trkpt lat="43.61364" lon="6.48797">
        <ele>490</ele>
        <time>2013-10-02T14:43:50Z</time>
      </trkpt>
      <trkpt lat="43.61372" lon="6.48803">
        <ele>490</ele>
        <time>2013-10-02T14:50:40Z</time>
      </trkpt>
      <trkpt lat="43.61365" lon="6.48789">
        <ele>488</ele>
        <time>2013-10-02T14:51:38Z</time>
      </trkpt>
      <trkpt lat="43.61358" lon="6.48784">
        <ele>489</ele>
        <time>2013-10-02T14:51:49Z</time>
      </trkpt>
      <trkpt lat="43.61357" lon="6.48783">
        <ele>490</ele>
        <time>2013-10-02T14:51:50Z</time>
      </trkpt>
      <trkpt lat="43.61349" lon="6.48765">
        <ele>490</ele>
        <time>2013-10-02T14:52:07Z</time>
      </trkpt>
      <trkpt lat="43.61343" lon="6.48757">
        <ele>489</ele>
        <time>2013-10-02T14:52:13Z</time>
      </trkpt>
      <trkpt lat="43.61336" lon="6.48751">
        <ele>490</ele>
        <time>2013-10-02T14:52:21Z</time>
      </trkpt>
      <trkpt lat="43.6133" lon="6.48745">
        <ele>489</ele>
        <time>2013-10-02T14:52:28Z</time>
      </trkpt>
      <trkpt lat="43.61323" lon="6.48736">
        <ele>489</ele>
        <time>2013-10-02T14:52:36Z</time>
      </trkpt>
      <trkpt lat="43.61317" lon="6.48728">
        <ele>490</ele>
        <time>2013-10-02T14:52:47Z</time>
      </trkpt>
      <trkpt lat="43.61309" lon="6.48723">
        <ele>488</ele>
        <time>2013-10-02T14:53:01Z</time>
      </trkpt>
      <trkpt lat="43.61308" lon="6.48723">
        <ele>489</ele>
        <time>2013-10-02T14:53:02Z</time>
      </trkpt>
      <trkpt lat="43.61292" lon="6.48719">
        <ele>490</ele>
        <time>2013-10-02T14:53:25Z</time>
      </trkpt>
      <trkpt lat="43.61284" lon="6.48717">
        <ele>490</ele>
        <time>2013-10-02T14:53:32Z</time>
      </trkpt>
      <trkpt lat="43.61277" lon="6.48713">
        <ele>488</ele>
        <time>2013-10-02T14:53:37Z</time>
      </trkpt>
      <trkpt lat="43.6127" lon="6.48708">
        <ele>488</ele>
        <time>2013-10-02T14:53:45Z</time>
      </trkpt>
      <trkpt lat="43.61263" lon="6.48704">
        <ele>489</ele>
        <time>2013-10-02T14:53:50Z</time>
      </trkpt>
      <trkpt lat="43.61254" lon="6.48702">
        <ele>488</ele>
        <time>2013-10-02T14:53:57Z</time>
      </trkpt>
      <trkpt lat="43.61245" lon="6.48701">
        <ele>490</ele>
        <time>2013-10-02T14:54:04Z</time>
      </trkpt>
      <trkpt lat="43.61245" lon="6.48701">
        <ele>489</ele>
        <time>2013-10-02T14:54:05Z</time>
      </trkpt>
      <trkpt lat="43.61229" lon="6.48707">
        <ele>489</ele>
        <time>2013-10-02T14:54:23Z</time>
      </trkpt>
      <trkpt lat="43.61223" lon="6.48715">
        <ele>489</ele>
        <time>2013-10-02T14:54:31Z</time>
      </trkpt>
      <trkpt lat="43.61214" lon="6.48714">
        <ele>487</ele>
        <time>2013-10-02T14:54:39Z</time>
      </trkpt>
      <trkpt lat="43.61208" lon="6.48708">
        <ele>486</ele>
        <time>2013-10-02T14:54:46Z</time>
      </trkpt>
      <trkpt lat="43.612" lon="6.487">
        <ele>485</ele>
        <time>2013-10-02T14:54:54Z</time>
      </trkpt>
      <trkpt lat="43.61193" lon="6.48693">
        <ele>486</ele>
        <time>2013-10-02T14:55:02Z</time>
      </trkpt>
      <trkpt lat="43.61187" lon="6.48685">
        <ele>484</ele>
        <time>2013-10-02T14:55:10Z</time>
      </trkpt>
      <trkpt lat="43.61186" lon="6.48684">
        <ele>484</ele>
        <time>2013-10-02T14:55:11Z</time>
      </trkpt>
      <trkpt lat="43.61187" lon="6.48665">
        <ele>482</ele>
        <time>2013-10-02T14:55:31Z</time>
      </trkpt>
      <trkpt lat="43.61189" lon="6.48654">
        <ele>481</ele>
        <time>2013-10-02T14:55:37Z</time>
      </trkpt>
      <trkpt lat="43.61192" lon="6.48642">
        <ele>482</ele>
        <time>2013-10-02T14:55:44Z</time>
      </trkpt>
      <trkpt lat="43.61194" lon="6.4863">
        <ele>480</ele>
        <time>2013-10-02T14:55:52Z</time>
      </trkpt>
      <trkpt lat="43.61196" lon="6.48619">
        <ele>479</ele>
        <time>2013-10-02T14:55:59Z</time>
      </trkpt>
      <trkpt lat="43.61198" lon="6.48608">
        <ele>479</ele>
        <time>2013-10-02T14:56:06Z</time>
      </trkpt>
      <trkpt lat="43.612" lon="6.48597">
        <ele>479</ele>
        <time>2013-10-02T14:56:12Z</time>
      </trkpt>
      <trkpt lat="43.612" lon="6.48595">
        <ele>478</ele>
        <time>2013-10-02T14:56:13Z</time>
      </trkpt>
      <trkpt lat="43.61201" lon="6.48573">
        <ele>479</ele>
        <time>2013-10-02T14:56:26Z</time>
      </trkpt>
      <trkpt lat="43.61201" lon="6.48563">
        <ele>477</ele>
        <time>2013-10-02T14:56:32Z</time>
      </trkpt>
      <trkpt lat="43.61197" lon="6.48552">
        <ele>478</ele>
        <time>2013-10-02T14:56:38Z</time>
      </trkpt>
      <trkpt lat="43.61193" lon="6.48543">
        <ele>478</ele>
        <time>2013-10-02T14:56:46Z</time>
      </trkpt>
      <trkpt lat="43.6119" lon="6.48531">
        <ele>478</ele>
        <time>2013-10-02T14:56:53Z</time>
      </trkpt>
      <trkpt lat="43.61185" lon="6.48522">
        <ele>479</ele>
        <time>2013-10-02T14:57:00Z</time>
      </trkpt>
      <trkpt lat="43.61179" lon="6.48514">
        <ele>480</ele>
        <time>2013-10-02T14:57:09Z</time>
      </trkpt>
      <trkpt lat="43.61175" lon="6.48503">
        <ele>479</ele>
        <time>2013-10-02T14:57:16Z</time>
      </trkpt>
      <trkpt lat="43.61174" lon="6.48502">
        <ele>479</ele>
        <time>2013-10-02T14:57:17Z</time>
      </trkpt>
      <trkpt lat="43.61168" lon="6.48483">
        <ele>479</ele>
        <time>2013-10-02T14:57:31Z</time>
      </trkpt>
      <trkpt lat="43.61165" lon="6.48472">
        <ele>477</ele>
        <time>2013-10-02T14:57:39Z</time>
      </trkpt>
      <trkpt lat="43.61159" lon="6.48463">
        <ele>476</ele>
        <time>2013-10-02T14:57:48Z</time>
      </trkpt>
      <trkpt lat="43.61153" lon="6.48455">
        <ele>477</ele>
        <time>2013-10-02T14:57:57Z</time>
      </trkpt>
      <trkpt lat="43.61153" lon="6.48443">
        <ele>477</ele>
        <time>2013-10-02T14:58:04Z</time>
      </trkpt>
      <trkpt lat="43.61148" lon="6.48435">
        <ele>477</ele>
        <time>2013-10-02T14:58:08Z</time>
      </trkpt>
      <trkpt lat="43.6114" lon="6.48428">
        <ele>476</ele>
        <time>2013-10-02T14:58:15Z</time>
      </trkpt>
      <trkpt lat="43.61133" lon="6.48422">
        <ele>475</ele>
        <time>2013-10-02T14:58:24Z</time>
      </trkpt>
      <trkpt lat="43.61132" lon="6.48421">
        <ele>476</ele>
        <time>2013-10-02T14:58:25Z</time>
      </trkpt>
      <trkpt lat="43.61116" lon="6.48419">
        <ele>476</ele>
        <time>2013-10-02T14:58:42Z</time>
      </trkpt>
      <trkpt lat="43.61108" lon="6.48422">
        <ele>475</ele>
        <time>2013-10-02T14:58:50Z</time>
      </trkpt>
      <trkpt lat="43.611" lon="6.48427">
        <ele>476</ele>
        <time>2013-10-02T14:58:58Z</time>
      </trkpt>
      <trkpt lat="43.61092" lon="6.48431">
        <ele>476</ele>
        <time>2013-10-02T14:59:05Z</time>
      </trkpt>
      <trkpt lat="43.61083" lon="6.4843">
        <ele>476</ele>
        <time>2013-10-02T14:59:10Z</time>
      </trkpt>
      <trkpt lat="43.61075" lon="6.48429">
        <ele>477</ele>
        <time>2013-10-02T14:59:15Z</time>
      </trkpt>
      <trkpt lat="43.61067" lon="6.48428">
        <ele>477</ele>
        <time>2013-10-02T14:59:21Z</time>
      </trkpt>
      <trkpt lat="43.61059" lon="6.48427">
        <ele>476</ele>
        <time>2013-10-02T14:59:27Z</time>
      </trkpt>
      <trkpt lat="43.61058" lon="6.48426">
        <ele>476</ele>
        <time>2013-10-02T14:59:28Z</time>
      </trkpt>
      <trkpt lat="43.61044" lon="6.48421">
        <ele>477</ele>
        <time>2013-10-02T14:59:39Z</time>
      </trkpt>
      <trkpt lat="43.61037" lon="6.48419">
        <ele>476</ele>
        <time>2013-10-02T14:59:44Z</time>
      </trkpt>
      <trkpt lat="43.61029" lon="6.48416">
        <ele>476</ele>
        <time>2013-10-02T14:59:50Z</time>
      </trkpt>
      <trkpt lat="43.61022" lon="6.48409">
        <ele>476</ele>
        <time>2013-10-02T14:59:57Z</time>
      </trkpt>
      <trkpt lat="43.6102" lon="6.48398">
        <ele>476</ele>
        <time>2013-10-02T15:00:05Z</time>
      </trkpt>
      <trkpt lat="43.61023" lon="6.48387">
        <ele>474</ele>
        <time>2013-10-02T15:00:13Z</time>
      </trkpt>
      <trkpt lat="43.61025" lon="6.48375">
        <ele>473</ele>
        <time>2013-10-02T15:00:22Z</time>
      </trkpt>
      <trkpt lat="43.61025" lon="6.48363">
        <ele>474</ele>
        <time>2013-10-02T15:00:31Z</time>
      </trkpt>
      <trkpt lat="43.61025" lon="6.48362">
        <ele>474</ele>
        <time>2013-10-02T15:00:32Z</time>
      </trkpt>
      <trkpt lat="43.61024" lon="6.48341">
        <ele>473</ele>
        <time>2013-10-02T15:00:45Z</time>
      </trkpt>
      <trkpt lat="43.61023" lon="6.48329">
        <ele>474</ele>
        <time>2013-10-02T15:00:52Z</time>
      </trkpt>
      <trkpt lat="43.61023" lon="6.48317">
        <ele>474</ele>
        <time>2013-10-02T15:01:00Z</time>
      </trkpt>
      <trkpt lat="43.61024" lon="6.48306">
        <ele>474</ele>
        <time>2013-10-02T15:01:07Z</time>
      </trkpt>
      <trkpt lat="43.61025" lon="6.48294">
        <ele>474</ele>
        <time>2013-10-02T15:01:14Z</time>
      </trkpt>
      <trkpt lat="43.6103" lon="6.48284">
        <ele>474</ele>
        <time>2013-10-02T15:01:22Z</time>
      </trkpt>
      <trkpt lat="43.61034" lon="6.48275">
        <ele>474</ele>
        <time>2013-10-02T15:01:29Z</time>
      </trkpt>
      <trkpt lat="43.61041" lon="6.48268">
        <ele>475</ele>
        <time>2013-10-02T15:01:37Z</time>
      </trkpt>
      <trkpt lat="43.61042" lon="6.48268">
        <ele>475</ele>
        <time>2013-10-02T15:01:38Z</time>
      </trkpt>
      <trkpt lat="43.61058" lon="6.48261">
        <ele>475</ele>
        <time>2013-10-02T15:02:21Z</time>
      </trkpt>
      <trkpt lat="43.61066" lon="6.48264">
        <ele>475</ele>
        <time>2013-10-02T15:02:41Z</time>
      </trkpt>
      <trkpt lat="43.61067" lon="6.48264">
        <ele>475</ele>
        <time>2013-10-02T15:02:42Z</time>
      </trkpt>
      <trkpt lat="43.61073" lon="6.48273">
        <ele>475</ele>
        <time>2013-10-02T15:04:05Z</time>
      </trkpt>
    </trkseg>
  </trk>
</gpx>